<?xml version="1.0" encoding="UTF-8" standalone="no" ?><gpx xmlns="http://www.topografix.com/GPX/1/1" xmlns:gpxx="http://www.garmin.com/xmlschemas/GpxExtensions/v3" xmlns:gpxtrkx="http://www.garmin.com/xmlschemas/TrackStatsExtension/v1" xmlns:wptx1="http://www.garmin.com/xmlschemas/WaypointExtension/v1" xmlns:gpxtpx="http://www.garmin.com/xmlschemas/TrackPointExtension/v1" creator="GPSMAP 62" version="1.1" xmlns:xsi="http://www.w3.org/2001/XMLSchema-instance" xsi:schemaLocation="http://www.topografix.com/GPX/1/1 http://www.topografix.com/GPX/1/1/gpx.xsd http://www.garmin.com/xmlschemas/GpxExtensions/v3 http://www8.garmin.com/xmlschemas/GpxExtensionsv3.xsd http://www.garmin.com/xmlschemas/TrackStatsExtension/v1 http://www8.garmin.com/xmlschemas/TrackStatsExtension.xsd http://www.garmin.com/xmlschemas/WaypointExtension/v1 http://www8.garmin.com/xmlschemas/WaypointExtensionv1.xsd http://www.garmin.com/xmlschemas/TrackPointExtension/v1 http://www.garmin.com/xmlschemas/TrackPointExtensionv1.xsd"><metadata><link href="http://www.garmin.com"><text>Garmin International</text></link><time>2026-09-02T14:32:53Z</time></metadata><trk><name>2026-09-02 17:32:49</name><extensions><gpxx:TrackExtension><gpxx:DisplayColor>Cyan</gpxx:DisplayColor></gpxx:TrackExtension><gpxtrkx:TrackStatsExtension><gpxtrkx:Distance>13321</gpxtrkx:Distance><gpxtrkx:TotalElapsedTime>15332</gpxtrkx:TotalElapsedTime><gpxtrkx:MovingTime>8936</gpxtrkx:MovingTime><gpxtrkx:StoppedTime>6001</gpxtrkx:StoppedTime><gpxtrkx:MovingSpeed>1</gpxtrkx:MovingSpeed><gpxtrkx:MaxSpeed>257</gpxtrkx:MaxSpeed><gpxtrkx:MaxElevation>10528</gpxtrkx:MaxElevation><gpxtrkx:MinElevation>-1512</gpxtrkx:MinElevation><gpxtrkx:Ascent>114593</gpxtrkx:Ascent><gpxtrkx:Descent>114314</gpxtrkx:Descent><gpxtrkx:AvgAscentRate>0</gpxtrkx:AvgAscentRate><gpxtrkx:MaxAscentRate>17</gpxtrkx:MaxAscentRate><gpxtrkx:AvgDescentRate>0</gpxtrkx:AvgDescentRate><gpxtrkx:MaxDescentRate>-14</gpxtrkx:MaxDescentRate></gpxtrkx:TrackStatsExtension></extensions><trkseg><trkpt lat="59.4560546614" lon="31.0918607097"><ele>61.18</ele><time>2026-09-02T10:17:21Z</time></trkpt><trkpt lat="59.4560309406" lon="31.0918553453"><ele>60.70</ele><time>2026-09-02T10:17:22Z</time></trkpt><trkpt lat="59.4559569284" lon="31.0918754619"><ele>52.53</ele><time>2026-09-02T10:17:37Z</time></trkpt><trkpt lat="59.4559193775" lon="31.0918836761"><ele>47.72</ele><time>2026-09-02T10:17:57Z</time></trkpt><trkpt lat="59.4559156056" lon="31.0918765515"><ele>47.72</ele><time>2026-09-02T10:17:58Z</time></trkpt><trkpt lat="59.4559509773" lon="31.0918318760"><ele>47.24</ele><time>2026-09-02T10:18:12Z</time></trkpt><trkpt lat="59.4559519831" lon="31.0918453708"><ele>47.24</ele><time>2026-09-02T10:18:34Z</time></trkpt><trkpt lat="59.4559898693" lon="31.0919770505"><ele>46.28</ele><time>2026-09-02T10:18:55Z</time></trkpt><trkpt lat="59.4562909473" lon="31.0925158393"><ele>46.28</ele><time>2026-09-02T10:19:18Z</time></trkpt><trkpt lat="59.4565377105" lon="31.0933712125"><ele>45.32</ele><time>2026-09-02T10:19:42Z</time></trkpt><trkpt lat="59.4569729827" lon="31.0942664836"><ele>50.61</ele><time>2026-09-02T10:20:06Z</time></trkpt><trkpt lat="59.4572458137" lon="31.0951661132"><ele>55.41</ele><time>2026-09-02T10:20:28Z</time></trkpt><trkpt lat="59.4574846141" lon="31.0959250946"><ele>56.37</ele><time>2026-09-02T10:20:47Z</time></trkpt><trkpt lat="59.4577185530" lon="31.0966953076"><ele>56.37</ele><time>2026-09-02T10:21:07Z</time></trkpt><trkpt lat="59.4578564353" lon="31.0971428175"><ele>56.86</ele><time>2026-09-02T10:21:21Z</time></trkpt><trkpt lat="59.4581388216" lon="31.0979896411"><ele>57.82</ele><time>2026-09-02T10:21:42Z</time></trkpt><trkpt lat="59.4584274944" lon="31.0988873430"><ele>58.78</ele><time>2026-09-02T10:22:04Z</time></trkpt><trkpt lat="59.4586996548" lon="31.0996261239"><ele>58.30</ele><time>2026-09-02T10:22:25Z</time></trkpt><trkpt lat="59.4587937836" lon="31.0997855477"><ele>57.82</ele><time>2026-09-02T10:22:42Z</time></trkpt><trkpt lat="59.4587191846" lon="31.0996449832"><ele>57.34</ele><time>2026-09-02T10:23:04Z</time></trkpt><trkpt lat="59.4587011635" lon="31.0995860584"><ele>54.93</ele><time>2026-09-02T10:23:30Z</time></trkpt><trkpt lat="59.4586823042" lon="31.0995750781"><ele>51.09</ele><time>2026-09-02T10:23:47Z</time></trkpt><trkpt lat="59.4586955477" lon="31.0995809454"><ele>52.05</ele><time>2026-09-02T10:23:58Z</time></trkpt><trkpt lat="59.4586963858" lon="31.0995610803"><ele>54.45</ele><time>2026-09-02T10:24:16Z</time></trkpt><trkpt lat="59.4586960506" lon="31.0995870642"><ele>54.45</ele><time>2026-09-02T10:24:31Z</time></trkpt><trkpt lat="59.4586995710" lon="31.0995947756"><ele>53.49</ele><time>2026-09-02T10:24:45Z</time></trkpt><trkpt lat="59.4586903509" lon="31.0995771736"><ele>53.01</ele><time>2026-09-02T10:25:09Z</time></trkpt><trkpt lat="59.4586828072" lon="31.0995718092"><ele>53.97</ele><time>2026-09-02T10:25:30Z</time></trkpt><trkpt lat="59.4586775266" lon="31.0995773412"><ele>53.01</ele><time>2026-09-02T10:25:53Z</time></trkpt><trkpt lat="59.4586976431" lon="31.0995722283"><ele>52.05</ele><time>2026-09-02T10:26:16Z</time></trkpt><trkpt lat="59.4586796220" lon="31.0995726474"><ele>51.09</ele><time>2026-09-02T10:26:35Z</time></trkpt><trkpt lat="59.4586937875" lon="31.0995872319"><ele>51.09</ele><time>2026-09-02T10:26:52Z</time></trkpt><trkpt lat="59.4586837292" lon="31.0995867290"><ele>52.53</ele><time>2026-09-02T10:27:09Z</time></trkpt><trkpt lat="59.4586867467" lon="31.0995655227"><ele>53.97</ele><time>2026-09-02T10:27:34Z</time></trkpt><trkpt lat="59.4586677197" lon="31.0995453224"><ele>53.49</ele><time>2026-09-02T10:27:48Z</time></trkpt><trkpt lat="59.4586473517" lon="31.0995686240"><ele>52.05</ele><time>2026-09-02T10:28:09Z</time></trkpt><trkpt lat="59.4586597569" lon="31.0995670315"><ele>51.57</ele><time>2026-09-02T10:28:26Z</time></trkpt><trkpt lat="59.4586954638" lon="31.0995603260"><ele>50.13</ele><time>2026-09-02T10:28:40Z</time></trkpt><trkpt lat="59.4586853217" lon="31.0995657742"><ele>50.13</ele><time>2026-09-02T10:28:55Z</time></trkpt><trkpt lat="59.4586845674" lon="31.0995771736"><ele>52.05</ele><time>2026-09-02T10:29:22Z</time></trkpt><trkpt lat="59.4586863276" lon="31.0995853040"><ele>52.53</ele><time>2026-09-02T10:29:38Z</time></trkpt><trkpt lat="59.4586795382" lon="31.0995688755"><ele>53.01</ele><time>2026-09-02T10:30:12Z</time></trkpt><trkpt lat="59.4586738385" lon="31.0995700490"><ele>53.01</ele><time>2026-09-02T10:30:27Z</time></trkpt><trkpt lat="59.4586766046" lon="31.0995694622"><ele>55.89</ele><time>2026-09-02T10:30:54Z</time></trkpt><trkpt lat="59.4586771913" lon="31.0995298158"><ele>54.93</ele><time>2026-09-02T10:31:14Z</time></trkpt><trkpt lat="59.4586544763" lon="31.0995604098"><ele>55.41</ele><time>2026-09-02T10:31:30Z</time></trkpt><trkpt lat="59.4586660434" lon="31.0995897464"><ele>55.41</ele><time>2026-09-02T10:31:49Z</time></trkpt><trkpt lat="59.4586413167" lon="31.0995392874"><ele>54.45</ele><time>2026-09-02T10:32:11Z</time></trkpt><trkpt lat="59.4586655404" lon="31.0995576438"><ele>54.45</ele><time>2026-09-02T10:32:25Z</time></trkpt><trkpt lat="59.4586878363" lon="31.0996086057"><ele>53.97</ele><time>2026-09-02T10:32:35Z</time></trkpt><trkpt lat="59.4586906023" lon="31.0996042471"><ele>53.97</ele><time>2026-09-02T10:32:44Z</time></trkpt><trkpt lat="59.4586944580" lon="31.0996349249"><ele>53.97</ele><time>2026-09-02T10:32:55Z</time></trkpt><trkpt lat="59.4586986490" lon="31.0996478330"><ele>53.97</ele><time>2026-09-02T10:33:08Z</time></trkpt><trkpt lat="59.4586893450" lon="31.0996952746"><ele>52.53</ele><time>2026-09-02T10:33:27Z</time></trkpt><trkpt lat="59.4586890098" lon="31.0996827018"><ele>51.57</ele><time>2026-09-02T10:33:45Z</time></trkpt><trkpt lat="59.4586997386" lon="31.0997103620"><ele>50.61</ele><time>2026-09-02T10:34:06Z</time></trkpt><trkpt lat="59.4587079529" lon="31.0996905807"><ele>49.16</ele><time>2026-09-02T10:34:31Z</time></trkpt><trkpt lat="59.4587051030" lon="31.0997031536"><ele>50.13</ele><time>2026-09-02T10:34:52Z</time></trkpt><trkpt lat="59.4586950447" lon="31.0996987112"><ele>49.65</ele><time>2026-09-02T10:35:16Z</time></trkpt><trkpt lat="59.4586920273" lon="31.0996592324"><ele>51.09</ele><time>2026-09-02T10:35:36Z</time></trkpt><trkpt lat="59.4587054383" lon="31.0996595677"><ele>50.61</ele><time>2026-09-02T10:35:59Z</time></trkpt><trkpt lat="59.4587857369" lon="31.0998934228"><ele>52.53</ele><time>2026-09-02T10:36:14Z</time></trkpt><trkpt lat="59.4588605035" lon="31.1000593007"><ele>53.49</ele><time>2026-09-02T10:36:28Z</time></trkpt><trkpt lat="59.4588796142" lon="31.1000984441"><ele>53.97</ele><time>2026-09-02T10:36:39Z</time></trkpt><trkpt lat="59.4589312468" lon="31.1001271941"><ele>54.93</ele><time>2026-09-02T10:36:48Z</time></trkpt><trkpt lat="59.4589401316" lon="31.1001390964"><ele>54.45</ele><time>2026-09-02T10:36:49Z</time></trkpt><trkpt lat="59.4589538779" lon="31.1002220772"><ele>53.97</ele><time>2026-09-02T10:36:59Z</time></trkpt><trkpt lat="59.4590430614" lon="31.1004570220"><ele>53.97</ele><time>2026-09-02T10:37:13Z</time></trkpt><trkpt lat="59.4590786006" lon="31.1005466245"><ele>54.93</ele><time>2026-09-02T10:37:25Z</time></trkpt><trkpt lat="59.4590573106" lon="31.1004586145"><ele>54.93</ele><time>2026-09-02T10:37:34Z</time></trkpt><trkpt lat="59.4590489287" lon="31.1004369892"><ele>54.93</ele><time>2026-09-02T10:37:35Z</time></trkpt><trkpt lat="59.4589406345" lon="31.1001520883"><ele>54.45</ele><time>2026-09-02T10:37:49Z</time></trkpt><trkpt lat="59.4589419756" lon="31.1000431236"><ele>54.45</ele><time>2026-09-02T10:37:55Z</time></trkpt><trkpt lat="59.4589905906" lon="31.0998857953"><ele>54.93</ele><time>2026-09-02T10:38:06Z</time></trkpt><trkpt lat="59.4590506889" lon="31.0995964520"><ele>55.41</ele><time>2026-09-02T10:38:21Z</time></trkpt><trkpt lat="59.4590786006" lon="31.0995265469"><ele>54.93</ele><time>2026-09-02T10:38:26Z</time></trkpt><trkpt lat="59.4591031596" lon="31.0994802788"><ele>54.93</ele><time>2026-09-02T10:38:39Z</time></trkpt><trkpt lat="59.4591335859" lon="31.0995273851"><ele>55.41</ele><time>2026-09-02T10:38:44Z</time></trkpt><trkpt lat="59.4592176564" lon="31.0995688755"><ele>54.93</ele><time>2026-09-02T10:38:56Z</time></trkpt><trkpt lat="59.4592770003" lon="31.0996211786"><ele>55.41</ele><time>2026-09-02T10:39:05Z</time></trkpt><trkpt lat="59.4593270402" lon="31.0996070970"><ele>55.41</ele><time>2026-09-02T10:39:11Z</time></trkpt><trkpt lat="59.4593442231" lon="31.0996314045"><ele>55.41</ele><time>2026-09-02T10:39:13Z</time></trkpt><trkpt lat="59.4593745656" lon="31.0996386129"><ele>55.41</ele><time>2026-09-02T10:39:16Z</time></trkpt><trkpt lat="59.4593915809" lon="31.0996333323"><ele>54.93</ele><time>2026-09-02T10:39:18Z</time></trkpt><trkpt lat="59.4594275393" lon="31.0997289699"><ele>55.41</ele><time>2026-09-02T10:39:28Z</time></trkpt><trkpt lat="59.4594443031" lon="31.0998200811"><ele>54.93</ele><time>2026-09-02T10:39:34Z</time></trkpt><trkpt lat="59.4594817702" lon="31.0998679418"><ele>54.93</ele><time>2026-09-02T10:39:39Z</time></trkpt><trkpt lat="59.4595557824" lon="31.0999532696"><ele>54.93</ele><time>2026-09-02T10:39:50Z</time></trkpt><trkpt lat="59.4595800899" lon="31.0999976099"><ele>54.45</ele><time>2026-09-02T10:39:53Z</time></trkpt><trkpt lat="59.4596603885" lon="31.1001489032"><ele>53.97</ele><time>2026-09-02T10:40:07Z</time></trkpt><trkpt lat="59.4596944191" lon="31.1001872085"><ele>54.45</ele><time>2026-09-02T10:40:12Z</time></trkpt><trkpt lat="59.4597494043" lon="31.1002889648"><ele>54.45</ele><time>2026-09-02T10:40:21Z</time></trkpt><trkpt lat="59.4597991928" lon="31.1002731230"><ele>53.97</ele><time>2026-09-02T10:40:34Z</time></trkpt><trkpt lat="59.4598158728" lon="31.1002806667"><ele>53.97</ele><time>2026-09-02T10:40:36Z</time></trkpt><trkpt lat="59.4598913938" lon="31.1003596243"><ele>53.01</ele><time>2026-09-02T10:40:48Z</time></trkpt><trkpt lat="59.4599617179" lon="31.1004310381"><ele>53.01</ele><time>2026-09-02T10:40:59Z</time></trkpt><trkpt lat="59.4600467104" lon="31.1004909687"><ele>53.49</ele><time>2026-09-02T10:41:10Z</time></trkpt><trkpt lat="59.4601353910" lon="31.1005874444"><ele>53.49</ele><time>2026-09-02T10:41:22Z</time></trkpt><trkpt lat="59.4601437729" lon="31.1005995981"><ele>53.01</ele><time>2026-09-02T10:41:23Z</time></trkpt><trkpt lat="59.4602247421" lon="31.1006948166"><ele>53.97</ele><time>2026-09-02T10:41:35Z</time></trkpt><trkpt lat="59.4602704234" lon="31.1007485446"><ele>53.97</ele><time>2026-09-02T10:41:43Z</time></trkpt><trkpt lat="59.4603111595" lon="31.1007932201"><ele>53.97</ele><time>2026-09-02T10:41:48Z</time></trkpt><trkpt lat="59.4604005944" lon="31.1008708365"><ele>54.45</ele><time>2026-09-02T10:42:00Z</time></trkpt><trkpt lat="59.4604204595" lon="31.1008922104"><ele>54.45</ele><time>2026-09-02T10:42:03Z</time></trkpt><trkpt lat="59.4605058711" lon="31.1009813100"><ele>53.97</ele><time>2026-09-02T10:42:14Z</time></trkpt><trkpt lat="59.4605813082" lon="31.1010601837"><ele>54.45</ele><time>2026-09-02T10:42:25Z</time></trkpt><trkpt lat="59.4606893510" lon="31.1011084635"><ele>54.93</ele><time>2026-09-02T10:42:39Z</time></trkpt><trkpt lat="59.4607887603" lon="31.1009898596"><ele>54.45</ele><time>2026-09-02T10:42:52Z</time></trkpt><trkpt lat="59.4609090406" lon="31.1008893605"><ele>53.97</ele><time>2026-09-02T10:43:07Z</time></trkpt><trkpt lat="59.4610579871" lon="31.1008454394"><ele>53.97</ele><time>2026-09-02T10:43:21Z</time></trkpt><trkpt lat="59.4611673709" lon="31.1009642947"><ele>53.01</ele><time>2026-09-02T10:43:36Z</time></trkpt><trkpt lat="59.4612442330" lon="31.1010910291"><ele>53.01</ele><time>2026-09-02T10:43:50Z</time></trkpt><trkpt lat="59.4613297284" lon="31.1011481937"><ele>51.09</ele><time>2026-09-02T10:44:03Z</time></trkpt><trkpt lat="59.4613905810" lon="31.1012257263"><ele>51.57</ele><time>2026-09-02T10:44:15Z</time></trkpt><trkpt lat="59.4614615757" lon="31.1012965534"><ele>53.49</ele><time>2026-09-02T10:44:31Z</time></trkpt><trkpt lat="59.4614873920" lon="31.1013185140"><ele>53.49</ele><time>2026-09-02T10:44:34Z</time></trkpt><trkpt lat="59.4615295529" lon="31.1014439911"><ele>51.09</ele><time>2026-09-02T10:44:51Z</time></trkpt><trkpt lat="59.4615161419" lon="31.1015092023"><ele>50.61</ele><time>2026-09-02T10:45:26Z</time></trkpt><trkpt lat="59.4615643378" lon="31.1014311668"><ele>52.53</ele><time>2026-09-02T10:45:51Z</time></trkpt><trkpt lat="59.4616506714" lon="31.1015394609"><ele>52.05</ele><time>2026-09-02T10:46:04Z</time></trkpt><trkpt lat="59.4618178904" lon="31.1016658600"><ele>50.61</ele><time>2026-09-02T10:46:21Z</time></trkpt><trkpt lat="59.4618469756" lon="31.1016838811"><ele>49.65</ele><time>2026-09-02T10:46:24Z</time></trkpt><trkpt lat="59.4619494863" lon="31.1018562131"><ele>45.80</ele><time>2026-09-02T10:46:38Z</time></trkpt><trkpt lat="59.4620732870" lon="31.1019966938"><ele>43.88</ele><time>2026-09-02T10:46:52Z</time></trkpt><trkpt lat="59.4621980097" lon="31.1021318100"><ele>42.92</ele><time>2026-09-02T10:47:09Z</time></trkpt><trkpt lat="59.4623025320" lon="31.1022736318"><ele>41.47</ele><time>2026-09-02T10:47:27Z</time></trkpt><trkpt lat="59.4623549189" lon="31.1024954170"><ele>42.92</ele><time>2026-09-02T10:47:43Z</time></trkpt><trkpt lat="59.4625021890" lon="31.1026241630"><ele>45.80</ele><time>2026-09-02T10:48:04Z</time></trkpt><trkpt lat="59.4625930488" lon="31.1027415935"><ele>45.32</ele><time>2026-09-02T10:48:21Z</time></trkpt><trkpt lat="59.4626778737" lon="31.1027963273"><ele>49.16</ele><time>2026-09-02T10:48:36Z</time></trkpt><trkpt lat="59.4627301767" lon="31.1027963273"><ele>52.53</ele><time>2026-09-02T10:48:49Z</time></trkpt><trkpt lat="59.4628314301" lon="31.1029139254"><ele>53.97</ele><time>2026-09-02T10:49:02Z</time></trkpt><trkpt lat="59.4629217032" lon="31.1030356307"><ele>55.41</ele><time>2026-09-02T10:49:15Z</time></trkpt><trkpt lat="59.4630085398" lon="31.1031511333"><ele>55.41</ele><time>2026-09-02T10:49:27Z</time></trkpt><trkpt lat="59.4630487729" lon="31.1031968147"><ele>55.41</ele><time>2026-09-02T10:49:32Z</time></trkpt><trkpt lat="59.4631154090" lon="31.1033487786"><ele>54.45</ele><time>2026-09-02T10:49:45Z</time></trkpt><trkpt lat="59.4631885830" lon="31.1034217011"><ele>54.93</ele><time>2026-09-02T10:49:56Z</time></trkpt><trkpt lat="59.4632672053" lon="31.1035338510"><ele>54.93</ele><time>2026-09-02T10:50:09Z</time></trkpt><trkpt lat="59.4633170776" lon="31.1035252176"><ele>54.93</ele><time>2026-09-02T10:50:15Z</time></trkpt><trkpt lat="59.4634070992" lon="31.1036559753"><ele>53.97</ele><time>2026-09-02T10:50:29Z</time></trkpt><trkpt lat="59.4635013118" lon="31.1037356872"><ele>52.05</ele><time>2026-09-02T10:50:42Z</time></trkpt><trkpt lat="59.4635740668" lon="31.1039041635"><ele>51.57</ele><time>2026-09-02T10:50:54Z</time></trkpt><trkpt lat="59.4636049122" lon="31.1040093563"><ele>50.13</ele><time>2026-09-02T10:51:07Z</time></trkpt><trkpt lat="59.4636453968" lon="31.1041158065"><ele>50.13</ele><time>2026-09-02T10:51:18Z</time></trkpt><trkpt lat="59.4636937603" lon="31.1042154673"><ele>48.68</ele><time>2026-09-02T10:51:30Z</time></trkpt><trkpt lat="59.4637732208" lon="31.1042623222"><ele>48.20</ele><time>2026-09-02T10:51:43Z</time></trkpt><trkpt lat="59.4638748933" lon="31.1044069938"><ele>46.76</ele><time>2026-09-02T10:51:57Z</time></trkpt><trkpt lat="59.4639860373" lon="31.1045328900"><ele>47.72</ele><time>2026-09-02T10:52:11Z</time></trkpt><trkpt lat="59.4640374184" lon="31.1046183854"><ele>47.24</ele><time>2026-09-02T10:52:30Z</time></trkpt><trkpt lat="59.4640511647" lon="31.1047017854"><ele>48.68</ele><time>2026-09-02T10:52:50Z</time></trkpt><trkpt lat="59.4640855305" lon="31.1046672519"><ele>48.20</ele><time>2026-09-02T10:53:12Z</time></trkpt><trkpt lat="59.4641005341" lon="31.1047328822"><ele>53.97</ele><time>2026-09-02T10:53:41Z</time></trkpt><trkpt lat="59.4641245902" lon="31.1046937387"><ele>61.66</ele><time>2026-09-02T10:54:00Z</time></trkpt><trkpt lat="59.4641086645" lon="31.1048973352"><ele>61.66</ele><time>2026-09-02T10:54:13Z</time></trkpt><trkpt lat="59.4641550165" lon="31.1049718503"><ele>60.22</ele><time>2026-09-02T10:54:26Z</time></trkpt><trkpt lat="59.4641735405" lon="31.1049810704"><ele>60.22</ele><time>2026-09-02T10:54:28Z</time></trkpt><trkpt lat="59.4642265979" lon="31.1050880235"><ele>56.86</ele><time>2026-09-02T10:54:42Z</time></trkpt><trkpt lat="59.4642422721" lon="31.1050979979"><ele>56.37</ele><time>2026-09-02T10:54:44Z</time></trkpt><trkpt lat="59.4643342216" lon="31.1051911209"><ele>52.53</ele><time>2026-09-02T10:54:57Z</time></trkpt><trkpt lat="59.4643829204" lon="31.1052741855"><ele>46.76</ele><time>2026-09-02T10:55:11Z</time></trkpt><trkpt lat="59.4644867722" lon="31.1053870060"><ele>40.03</ele><time>2026-09-02T10:55:33Z</time></trkpt><trkpt lat="59.4646862615" lon="31.1055688094"><ele>44.36</ele><time>2026-09-02T10:55:51Z</time></trkpt><trkpt lat="59.4647598546" lon="31.1056517903"><ele>44.36</ele><time>2026-09-02T10:56:07Z</time></trkpt><trkpt lat="59.4648415782" lon="31.1057332624"><ele>47.72</ele><time>2026-09-02T10:56:28Z</time></trkpt><trkpt lat="59.4648960605" lon="31.1056538858"><ele>48.68</ele><time>2026-09-02T10:56:48Z</time></trkpt><trkpt lat="59.4649652112" lon="31.1056705657"><ele>47.72</ele><time>2026-09-02T10:57:06Z</time></trkpt><trkpt lat="59.4650014210" lon="31.1056950409"><ele>49.16</ele><time>2026-09-02T10:57:26Z</time></trkpt><trkpt lat="59.4650548138" lon="31.1056905147"><ele>53.01</ele><time>2026-09-02T10:57:42Z</time></trkpt><trkpt lat="59.4650349487" lon="31.1055818852"><ele>52.05</ele><time>2026-09-02T10:58:04Z</time></trkpt><trkpt lat="59.4650155026" lon="31.1055022571"><ele>55.41</ele><time>2026-09-02T10:58:32Z</time></trkpt><trkpt lat="59.4650448393" lon="31.1056715716"><ele>52.53</ele><time>2026-09-02T10:58:59Z</time></trkpt><trkpt lat="59.4650404807" lon="31.1058011558"><ele>51.09</ele><time>2026-09-02T10:59:27Z</time></trkpt><trkpt lat="59.4651330169" lon="31.1056423187"><ele>54.93</ele><time>2026-09-02T10:59:52Z</time></trkpt><trkpt lat="59.4650503714" lon="31.1059188377"><ele>59.74</ele><time>2026-09-02T11:00:12Z</time></trkpt><trkpt lat="59.4650818873" lon="31.1059298180"><ele>57.82</ele><time>2026-09-02T11:00:26Z</time></trkpt><trkpt lat="59.4651050214" lon="31.1059958674"><ele>54.45</ele><time>2026-09-02T11:00:40Z</time></trkpt><trkpt lat="59.4650999922" lon="31.1060942709"><ele>51.57</ele><time>2026-09-02T11:01:03Z</time></trkpt><trkpt lat="59.4652213622" lon="31.1062208377"><ele>56.37</ele><time>2026-09-02T11:01:19Z</time></trkpt><trkpt lat="59.4652969670" lon="31.1064043175"><ele>53.01</ele><time>2026-09-02T11:01:34Z</time></trkpt><trkpt lat="59.4653545506" lon="31.1065229215"><ele>48.20</ele><time>2026-09-02T11:01:50Z</time></trkpt><trkpt lat="59.4653656147" lon="31.1065968499"><ele>41.95</ele><time>2026-09-02T11:02:02Z</time></trkpt><trkpt lat="59.4654172473" lon="31.1067230813"><ele>36.67</ele><time>2026-09-02T11:02:22Z</time></trkpt><trkpt lat="59.4653963763" lon="31.1067967582"><ele>38.59</ele><time>2026-09-02T11:02:42Z</time></trkpt><trkpt lat="59.4654490985" lon="31.1069857702"><ele>40.99</ele><time>2026-09-02T11:03:05Z</time></trkpt><trkpt lat="59.4655031618" lon="31.1071406677"><ele>50.13</ele><time>2026-09-02T11:03:29Z</time></trkpt><trkpt lat="59.4655032456" lon="31.1071057990"><ele>51.57</ele><time>2026-09-02T11:03:48Z</time></trkpt><trkpt lat="59.4655169081" lon="31.1072578467"><ele>52.53</ele><time>2026-09-02T11:04:05Z</time></trkpt><trkpt lat="59.4655913394" lon="31.1073207948"><ele>53.49</ele><time>2026-09-02T11:04:28Z</time></trkpt><trkpt lat="59.4657077640" lon="31.1074723396"><ele>53.97</ele><time>2026-09-02T11:04:54Z</time></trkpt><trkpt lat="59.4657357596" lon="31.1075830646"><ele>57.34</ele><time>2026-09-02T11:05:14Z</time></trkpt><trkpt lat="59.4658391085" lon="31.1074874271"><ele>54.93</ele><time>2026-09-02T11:05:41Z</time></trkpt><trkpt lat="59.4658055808" lon="31.1074269097"><ele>55.89</ele><time>2026-09-02T11:06:06Z</time></trkpt><trkpt lat="59.4658847898" lon="31.1072197929"><ele>64.07</ele><time>2026-09-02T11:06:22Z</time></trkpt><trkpt lat="59.4659335725" lon="31.1072164401"><ele>61.66</ele><time>2026-09-02T11:06:34Z</time></trkpt><trkpt lat="59.4660284556" lon="31.1073118262"><ele>60.70</ele><time>2026-09-02T11:06:47Z</time></trkpt><trkpt lat="59.4661421143" lon="31.1073691584"><ele>58.78</ele><time>2026-09-02T11:06:59Z</time></trkpt><trkpt lat="59.4662571140" lon="31.1074688192"><ele>58.30</ele><time>2026-09-02T11:07:14Z</time></trkpt><trkpt lat="59.4662469719" lon="31.1075164285"><ele>56.86</ele><time>2026-09-02T11:07:49Z</time></trkpt><trkpt lat="59.4664053898" lon="31.1075875070"><ele>54.93</ele><time>2026-09-02T11:08:07Z</time></trkpt><trkpt lat="59.4665235747" lon="31.1076353677"><ele>52.05</ele><time>2026-09-02T11:08:24Z</time></trkpt><trkpt lat="59.4666255824" lon="31.1075899377"><ele>47.72</ele><time>2026-09-02T11:08:46Z</time></trkpt><trkpt lat="59.4666962419" lon="31.1075461842"><ele>42.92</ele><time>2026-09-02T11:09:07Z</time></trkpt><trkpt lat="59.4667723496" lon="31.1074869242"><ele>38.59</ele><time>2026-09-02T11:09:40Z</time></trkpt><trkpt lat="59.4667498861" lon="31.1074110679"><ele>51.57</ele><time>2026-09-02T11:10:02Z</time></trkpt><trkpt lat="59.4667322002" lon="31.1072865129"><ele>56.86</ele><time>2026-09-02T11:10:21Z</time></trkpt><trkpt lat="59.4668233115" lon="31.1072838306"><ele>60.70</ele><time>2026-09-02T11:10:39Z</time></trkpt><trkpt lat="59.4668813143" lon="31.1072446872"><ele>54.45</ele><time>2026-09-02T11:10:55Z</time></trkpt><trkpt lat="59.4669688214" lon="31.1072518956"><ele>49.16</ele><time>2026-09-02T11:11:13Z</time></trkpt><trkpt lat="59.4670742657" lon="31.1072340421"><ele>49.65</ele><time>2026-09-02T11:11:30Z</time></trkpt><trkpt lat="59.4671395607" lon="31.1071180366"><ele>55.41</ele><time>2026-09-02T11:11:42Z</time></trkpt><trkpt lat="59.4671937916" lon="31.1070989259"><ele>58.30</ele><time>2026-09-02T11:11:58Z</time></trkpt><trkpt lat="59.4673424028" lon="31.1069967505"><ele>57.34</ele><time>2026-09-02T11:12:16Z</time></trkpt><trkpt lat="59.4674704783" lon="31.1069426872"><ele>50.61</ele><time>2026-09-02T11:12:36Z</time></trkpt><trkpt lat="59.4675643556" lon="31.1069095787"><ele>50.61</ele><time>2026-09-02T11:12:51Z</time></trkpt><trkpt lat="59.4675330073" lon="31.1070394982"><ele>44.36</ele><time>2026-09-02T11:13:20Z</time></trkpt><trkpt lat="59.4676033314" lon="31.1067422759"><ele>49.16</ele><time>2026-09-02T11:13:50Z</time></trkpt><trkpt lat="59.4676995557" lon="31.1066732928"><ele>57.34</ele><time>2026-09-02T11:14:02Z</time></trkpt><trkpt lat="59.4677825365" lon="31.1066398490"><ele>61.66</ele><time>2026-09-02T11:14:13Z</time></trkpt><trkpt lat="59.4679244421" lon="31.1066158768"><ele>62.62</ele><time>2026-09-02T11:14:30Z</time></trkpt><trkpt lat="59.4680198282" lon="31.1066064052"><ele>62.62</ele><time>2026-09-02T11:14:42Z</time></trkpt><trkpt lat="59.4680565409" lon="31.1065008771"><ele>58.78</ele><time>2026-09-02T11:14:55Z</time></trkpt><trkpt lat="59.4681622367" lon="31.1064294633"><ele>54.45</ele><time>2026-09-02T11:15:12Z</time></trkpt><trkpt lat="59.4682162162" lon="31.1062978674"><ele>53.49</ele><time>2026-09-02T11:15:28Z</time></trkpt><trkpt lat="59.4682126120" lon="31.1064865440"><ele>50.61</ele><time>2026-09-02T11:15:47Z</time></trkpt><trkpt lat="59.4682361651" lon="31.1064550281"><ele>47.72</ele><time>2026-09-02T11:16:12Z</time></trkpt><trkpt lat="59.4682095107" lon="31.1064635776"><ele>47.24</ele><time>2026-09-02T11:16:30Z</time></trkpt><trkpt lat="59.4682699442" lon="31.1065262742"><ele>50.13</ele><time>2026-09-02T11:16:51Z</time></trkpt><trkpt lat="59.4683079142" lon="31.1064422037"><ele>50.61</ele><time>2026-09-02T11:17:07Z</time></trkpt><trkpt lat="59.4683660846" lon="31.1064013839"><ele>56.37</ele><time>2026-09-02T11:17:21Z</time></trkpt><trkpt lat="59.4683974329" lon="31.1065046489"><ele>59.26</ele><time>2026-09-02T11:17:39Z</time></trkpt><trkpt lat="59.4684418570" lon="31.1066498235"><ele>61.66</ele><time>2026-09-02T11:17:55Z</time></trkpt><trkpt lat="59.4684230816" lon="31.1066651624"><ele>58.30</ele><time>2026-09-02T11:18:19Z</time></trkpt><trkpt lat="59.4684333075" lon="31.1065782420"><ele>58.30</ele><time>2026-09-02T11:18:41Z</time></trkpt><trkpt lat="59.4684807491" lon="31.1066556070"><ele>60.70</ele><time>2026-09-02T11:18:54Z</time></trkpt><trkpt lat="59.4685563538" lon="31.1067286134"><ele>60.22</ele><time>2026-09-02T11:19:08Z</time></trkpt><trkpt lat="59.4686246663" lon="31.1067256797"><ele>54.93</ele><time>2026-09-02T11:19:23Z</time></trkpt><trkpt lat="59.4687434379" lon="31.1067537591"><ele>53.97</ele><time>2026-09-02T11:19:38Z</time></trkpt><trkpt lat="59.4687897060" lon="31.1068193894"><ele>53.01</ele><time>2026-09-02T11:19:50Z</time></trkpt><trkpt lat="59.4688428473" lon="31.1068385001"><ele>52.53</ele><time>2026-09-02T11:20:04Z</time></trkpt><trkpt lat="59.4689481240" lon="31.1068644840"><ele>53.01</ele><time>2026-09-02T11:20:21Z</time></trkpt><trkpt lat="59.4690843299" lon="31.1071156897"><ele>54.93</ele><time>2026-09-02T11:20:41Z</time></trkpt><trkpt lat="59.4690566696" lon="31.1071848404"><ele>49.16</ele><time>2026-09-02T11:21:00Z</time></trkpt><trkpt lat="59.4690339547" lon="31.1072686594"><ele>53.01</ele><time>2026-09-02T11:22:19Z</time></trkpt><trkpt lat="59.4690642972" lon="31.1071391590"><ele>67.91</ele><time>2026-09-02T11:22:48Z</time></trkpt><trkpt lat="59.4691114873" lon="31.1070980038"><ele>70.79</ele><time>2026-09-02T11:23:17Z</time></trkpt><trkpt lat="59.4691641256" lon="31.1071166117"><ele>71.27</ele><time>2026-09-02T11:23:41Z</time></trkpt><trkpt lat="59.4691342860" lon="31.1070313677"><ele>69.35</ele><time>2026-09-02T11:24:04Z</time></trkpt><trkpt lat="59.4690952264" lon="31.1070115864"><ele>71.76</ele><time>2026-09-02T11:24:22Z</time></trkpt><trkpt lat="59.4692465197" lon="31.1072037835"><ele>66.47</ele><time>2026-09-02T11:24:40Z</time></trkpt><trkpt lat="59.4692771137" lon="31.1073245667"><ele>64.55</ele><time>2026-09-02T11:24:52Z</time></trkpt><trkpt lat="59.4693065342" lon="31.1074932944"><ele>61.18</ele><time>2026-09-02T11:25:07Z</time></trkpt><trkpt lat="59.4692676421" lon="31.1076762713"><ele>66.95</ele><time>2026-09-02T11:25:23Z</time></trkpt><trkpt lat="59.4692632835" lon="31.1078533810"><ele>60.22</ele><time>2026-09-02T11:25:37Z</time></trkpt><trkpt lat="59.4692825619" lon="31.1079801153"><ele>58.30</ele><time>2026-09-02T11:25:54Z</time></trkpt><trkpt lat="59.4693831448" lon="31.1079080310"><ele>56.86</ele><time>2026-09-02T11:26:11Z</time></trkpt><trkpt lat="59.4694348611" lon="31.1080193426"><ele>56.86</ele><time>2026-09-02T11:26:26Z</time></trkpt><trkpt lat="59.4694681372" lon="31.1079416424"><ele>56.37</ele><time>2026-09-02T11:26:42Z</time></trkpt><trkpt lat="59.4695412274" lon="31.1078133993"><ele>56.86</ele><time>2026-09-02T11:26:58Z</time></trkpt><trkpt lat="59.4696380384" lon="31.1077407282"><ele>58.78</ele><time>2026-09-02T11:27:10Z</time></trkpt><trkpt lat="59.4696713984" lon="31.1076803785"><ele>57.82</ele><time>2026-09-02T11:27:24Z</time></trkpt><trkpt lat="59.4697126374" lon="31.1076995730"><ele>51.57</ele><time>2026-09-02T11:27:46Z</time></trkpt><trkpt lat="59.4696878269" lon="31.1077645328"><ele>48.20</ele><time>2026-09-02T11:28:07Z</time></trkpt><trkpt lat="59.4696942810" lon="31.1077762675"><ele>53.01</ele><time>2026-09-02T11:28:29Z</time></trkpt><trkpt lat="59.4697466679" lon="31.1078358628"><ele>53.97</ele><time>2026-09-02T11:28:41Z</time></trkpt><trkpt lat="59.4697644375" lon="31.1079187598"><ele>51.09</ele><time>2026-09-02T11:28:57Z</time></trkpt><trkpt lat="59.4698300678" lon="31.1080373637"><ele>49.65</ele><time>2026-09-02T11:29:11Z</time></trkpt><trkpt lat="59.4698502682" lon="31.1080836318"><ele>50.61</ele><time>2026-09-02T11:29:23Z</time></trkpt><trkpt lat="59.4699416310" lon="31.1081173271"><ele>51.57</ele><time>2026-09-02T11:29:37Z</time></trkpt><trkpt lat="59.4699877314" lon="31.1081560515"><ele>53.97</ele><time>2026-09-02T11:29:53Z</time></trkpt><trkpt lat="59.4699884858" lon="31.1081108730"><ele>57.82</ele><time>2026-09-02T11:30:09Z</time></trkpt><trkpt lat="59.4700322393" lon="31.1081069335"><ele>58.30</ele><time>2026-09-02T11:30:28Z</time></trkpt><trkpt lat="59.4700739812" lon="31.1081055924"><ele>58.78</ele><time>2026-09-02T11:30:44Z</time></trkpt><trkpt lat="59.4701156393" lon="31.1081244517"><ele>58.30</ele><time>2026-09-02T11:30:56Z</time></trkpt><trkpt lat="59.4701598119" lon="31.1081994697"><ele>59.26</ele><time>2026-09-02T11:31:13Z</time></trkpt><trkpt lat="59.4701909926" lon="31.1082762480"><ele>56.86</ele><time>2026-09-02T11:31:25Z</time></trkpt><trkpt lat="59.4702531025" lon="31.1082583945"><ele>55.89</ele><time>2026-09-02T11:31:38Z</time></trkpt><trkpt lat="59.4703064114" lon="31.1082232744"><ele>56.37</ele><time>2026-09-02T11:32:01Z</time></trkpt><trkpt lat="59.4703220855" lon="31.1081759166"><ele>56.86</ele><time>2026-09-02T11:32:21Z</time></trkpt><trkpt lat="59.4702844508" lon="31.1080741603"><ele>59.26</ele><time>2026-09-02T11:32:44Z</time></trkpt><trkpt lat="59.4703045674" lon="31.1079403851"><ele>63.10</ele><time>2026-09-02T11:32:59Z</time></trkpt><trkpt lat="59.4704047311" lon="31.1077372916"><ele>62.62</ele><time>2026-09-02T11:33:14Z</time></trkpt><trkpt lat="59.4704634883" lon="31.1076792888"><ele>59.26</ele><time>2026-09-02T11:33:29Z</time></trkpt><trkpt lat="59.4705491513" lon="31.1078122258"><ele>57.82</ele><time>2026-09-02T11:33:43Z</time></trkpt><trkpt lat="59.4706260972" lon="31.1079520360"><ele>56.86</ele><time>2026-09-02T11:33:58Z</time></trkpt><trkpt lat="59.4707184657" lon="31.1080705561"><ele>55.89</ele><time>2026-09-02T11:34:12Z</time></trkpt><trkpt lat="59.4708248321" lon="31.1081122141"><ele>57.34</ele><time>2026-09-02T11:34:25Z</time></trkpt><trkpt lat="59.4708876964" lon="31.1081956979"><ele>55.41</ele><time>2026-09-02T11:34:41Z</time></trkpt><trkpt lat="59.4709101599" lon="31.1083082668"><ele>57.82</ele><time>2026-09-02T11:34:51Z</time></trkpt><trkpt lat="59.4709354732" lon="31.1084205844"><ele>56.86</ele><time>2026-09-02T11:35:07Z</time></trkpt><trkpt lat="59.4709844235" lon="31.1084194947"><ele>56.37</ele><time>2026-09-02T11:35:17Z</time></trkpt><trkpt lat="59.4710509758" lon="31.1084502563"><ele>58.78</ele><time>2026-09-02T11:35:33Z</time></trkpt><trkpt lat="59.4711066317" lon="31.1085036490"><ele>57.82</ele><time>2026-09-02T11:35:45Z</time></trkpt><trkpt lat="59.4711021055" lon="31.1084986199"><ele>56.86</ele><time>2026-09-02T11:36:02Z</time></trkpt><trkpt lat="59.4710995909" lon="31.1084593926"><ele>56.86</ele><time>2026-09-02T11:36:29Z</time></trkpt><trkpt lat="59.4710985012" lon="31.1083718017"><ele>54.45</ele><time>2026-09-02T11:36:53Z</time></trkpt><trkpt lat="59.4710928854" lon="31.1084554531"><ele>57.34</ele><time>2026-09-02T11:37:15Z</time></trkpt><trkpt lat="59.4711457752" lon="31.1085995380"><ele>60.22</ele><time>2026-09-02T11:37:44Z</time></trkpt><trkpt lat="59.4711021893" lon="31.1088096723"><ele>64.55</ele><time>2026-09-02T11:37:58Z</time></trkpt><trkpt lat="59.4711134210" lon="31.1089562718"><ele>61.18</ele><time>2026-09-02T11:38:11Z</time></trkpt><trkpt lat="59.4711087272" lon="31.1091237422"><ele>59.74</ele><time>2026-09-02T11:38:25Z</time></trkpt><trkpt lat="59.4710716791" lon="31.1092871055"><ele>56.86</ele><time>2026-09-02T11:38:42Z</time></trkpt><trkpt lat="59.4710331224" lon="31.1093716789"><ele>57.34</ele><time>2026-09-02T11:38:55Z</time></trkpt><trkpt lat="59.4710757025" lon="31.1094834935"><ele>59.26</ele><time>2026-09-02T11:39:07Z</time></trkpt><trkpt lat="59.4710886106" lon="31.1095948890"><ele>60.70</ele><time>2026-09-02T11:39:24Z</time></trkpt><trkpt lat="59.4710889459" lon="31.1097805481"><ele>60.22</ele><time>2026-09-02T11:39:38Z</time></trkpt><trkpt lat="59.4710919634" lon="31.1100693047"><ele>60.22</ele><time>2026-09-02T11:39:52Z</time></trkpt><trkpt lat="59.4710078090" lon="31.1101257149"><ele>59.74</ele><time>2026-09-02T11:40:04Z</time></trkpt><trkpt lat="59.4709674921" lon="31.1101367790"><ele>59.26</ele><time>2026-09-02T11:40:16Z</time></trkpt><trkpt lat="59.4709932245" lon="31.1101279780"><ele>56.37</ele><time>2026-09-02T11:40:34Z</time></trkpt><trkpt lat="59.4709731918" lon="31.1101630144"><ele>56.37</ele><time>2026-09-02T11:40:54Z</time></trkpt><trkpt lat="59.4710789714" lon="31.1100146547"><ele>57.82</ele><time>2026-09-02T11:41:19Z</time></trkpt><trkpt lat="59.4710087311" lon="31.1099538021"><ele>57.82</ele><time>2026-09-02T11:41:39Z</time></trkpt><trkpt lat="59.4710020255" lon="31.1099916045"><ele>64.55</ele><time>2026-09-02T11:41:55Z</time></trkpt><trkpt lat="59.4709430169" lon="31.1100231204"><ele>65.03</ele><time>2026-09-02T11:42:10Z</time></trkpt><trkpt lat="59.4708787277" lon="31.1100344360"><ele>65.03</ele><time>2026-09-02T11:42:25Z</time></trkpt><trkpt lat="59.4707658235" lon="31.1100571509"><ele>66.47</ele><time>2026-09-02T11:42:38Z</time></trkpt><trkpt lat="59.4707339723" lon="31.1100377887"><ele>69.83</ele><time>2026-09-02T11:42:51Z</time></trkpt><trkpt lat="59.4707245007" lon="31.1101638526"><ele>68.87</ele><time>2026-09-02T11:43:07Z</time></trkpt><trkpt lat="59.4707541727" lon="31.1103575584"><ele>66.95</ele><time>2026-09-02T11:43:22Z</time></trkpt><trkpt lat="59.4707804918" lon="31.1105453130"><ele>64.55</ele><time>2026-09-02T11:43:36Z</time></trkpt><trkpt lat="59.4708326273" lon="31.1107582971"><ele>58.78</ele><time>2026-09-02T11:43:55Z</time></trkpt><trkpt lat="59.4707742892" lon="31.1108457204"><ele>59.26</ele><time>2026-09-02T11:44:09Z</time></trkpt><trkpt lat="59.4707197230" lon="31.1109774001"><ele>60.70</ele><time>2026-09-02T11:44:24Z</time></trkpt><trkpt lat="59.4706512429" lon="31.1110967584"><ele>60.22</ele><time>2026-09-02T11:44:38Z</time></trkpt><trkpt lat="59.4706307072" lon="31.1111909710"><ele>61.66</ele><time>2026-09-02T11:44:54Z</time></trkpt><trkpt lat="59.4706245884" lon="31.1113258358"><ele>62.62</ele><time>2026-09-02T11:45:09Z</time></trkpt><trkpt lat="59.4706753828" lon="31.1114251614"><ele>64.07</ele><time>2026-09-02T11:45:23Z</time></trkpt><trkpt lat="59.4707113411" lon="31.1114528216"><ele>63.58</ele><time>2026-09-02T11:45:36Z</time></trkpt><trkpt lat="59.4707385823" lon="31.1115565896"><ele>61.66</ele><time>2026-09-02T11:45:50Z</time></trkpt><trkpt lat="59.4707743730" lon="31.1115196254"><ele>59.74</ele><time>2026-09-02T11:46:05Z</time></trkpt><trkpt lat="59.4708271790" lon="31.1115161050"><ele>58.30</ele><time>2026-09-02T11:46:20Z</time></trkpt><trkpt lat="59.4708559290" lon="31.1115049571"><ele>54.93</ele><time>2026-09-02T11:46:32Z</time></trkpt><trkpt lat="59.4709335454" lon="31.1115722638"><ele>54.45</ele><time>2026-09-02T11:46:50Z</time></trkpt><trkpt lat="59.4710223936" lon="31.1115635466"><ele>53.49</ele><time>2026-09-02T11:47:07Z</time></trkpt><trkpt lat="59.4711072184" lon="31.1115317792"><ele>55.41</ele><time>2026-09-02T11:47:20Z</time></trkpt><trkpt lat="59.4711244851" lon="31.1115984991"><ele>54.45</ele><time>2026-09-02T11:47:35Z</time></trkpt><trkpt lat="59.4711558335" lon="31.1116311885"><ele>53.97</ele><time>2026-09-02T11:47:49Z</time></trkpt><trkpt lat="59.4711922947" lon="31.1117190309"><ele>53.01</ele><time>2026-09-02T11:48:02Z</time></trkpt><trkpt lat="59.4711858407" lon="31.1117902771"><ele>53.01</ele><time>2026-09-02T11:48:13Z</time></trkpt><trkpt lat="59.4712006766" lon="31.1118421610"><ele>53.01</ele><time>2026-09-02T11:48:26Z</time></trkpt><trkpt lat="59.4711922947" lon="31.1118391436"><ele>51.57</ele><time>2026-09-02T11:48:40Z</time></trkpt><trkpt lat="59.4711942226" lon="31.1118581705"><ele>52.05</ele><time>2026-09-02T11:49:01Z</time></trkpt><trkpt lat="59.4712462742" lon="31.1118999124"><ele>55.41</ele><time>2026-09-02T11:49:24Z</time></trkpt><trkpt lat="59.4712412450" lon="31.1119868327"><ele>54.93</ele><time>2026-09-02T11:49:36Z</time></trkpt><trkpt lat="59.4712172728" lon="31.1120882537"><ele>54.45</ele><time>2026-09-02T11:49:56Z</time></trkpt><trkpt lat="59.4712218828" lon="31.1121374555"><ele>54.45</ele><time>2026-09-02T11:50:08Z</time></trkpt><trkpt lat="59.4712399878" lon="31.1121870764"><ele>57.82</ele><time>2026-09-02T11:50:26Z</time></trkpt><trkpt lat="59.4712362997" lon="31.1121791136"><ele>62.14</ele><time>2026-09-02T11:50:45Z</time></trkpt><trkpt lat="59.4711791351" lon="31.1122002359"><ele>61.66</ele><time>2026-09-02T11:51:01Z</time></trkpt><trkpt lat="59.4712299295" lon="31.1122377031"><ele>60.70</ele><time>2026-09-02T11:51:16Z</time></trkpt><trkpt lat="59.4712115731" lon="31.1123206001"><ele>62.14</ele><time>2026-09-02T11:51:28Z</time></trkpt><trkpt lat="59.4711813983" lon="31.1123073567"><ele>64.07</ele><time>2026-09-02T11:51:45Z</time></trkpt><trkpt lat="59.4711976591" lon="31.1123656109"><ele>65.51</ele><time>2026-09-02T11:52:05Z</time></trkpt><trkpt lat="59.4711708371" lon="31.1123424768"><ele>63.58</ele><time>2026-09-02T11:52:19Z</time></trkpt><trkpt lat="59.4711780455" lon="31.1124190874"><ele>64.55</ele><time>2026-09-02T11:52:34Z</time></trkpt><trkpt lat="59.4711860921" lon="31.1124744918"><ele>65.99</ele><time>2026-09-02T11:52:53Z</time></trkpt><trkpt lat="59.4711985812" lon="31.1124830414"><ele>65.03</ele><time>2026-09-02T11:53:08Z</time></trkpt><trkpt lat="59.4711775426" lon="31.1124830414"><ele>65.51</ele><time>2026-09-02T11:53:24Z</time></trkpt><trkpt lat="59.4711955637" lon="31.1125552934"><ele>64.55</ele><time>2026-09-02T11:53:41Z</time></trkpt><trkpt lat="59.4711966533" lon="31.1126495060"><ele>64.07</ele><time>2026-09-02T11:54:00Z</time></trkpt><trkpt lat="59.4711883552" lon="31.1125976220"><ele>65.03</ele><time>2026-09-02T11:54:15Z</time></trkpt><trkpt lat="59.4711186178" lon="31.1126654316"><ele>63.10</ele><time>2026-09-02T11:54:30Z</time></trkpt><trkpt lat="59.4711050391" lon="31.1128386855"><ele>60.70</ele><time>2026-09-02T11:54:43Z</time></trkpt><trkpt lat="59.4711063802" lon="31.1129415315"><ele>58.78</ele><time>2026-09-02T11:55:00Z</time></trkpt><trkpt lat="59.4711275026" lon="31.1130543519"><ele>58.78</ele><time>2026-09-02T11:55:13Z</time></trkpt><trkpt lat="59.4711928815" lon="31.1130827665"><ele>57.82</ele><time>2026-09-02T11:55:29Z</time></trkpt><trkpt lat="59.4711859245" lon="31.1131166294"><ele>59.26</ele><time>2026-09-02T11:55:44Z</time></trkpt><trkpt lat="59.4712153450" lon="31.1131613050"><ele>61.66</ele><time>2026-09-02T11:56:01Z</time></trkpt><trkpt lat="59.4712475315" lon="31.1131354887"><ele>66.47</ele><time>2026-09-02T11:56:17Z</time></trkpt><trkpt lat="59.4712510519" lon="31.1132010352"><ele>64.55</ele><time>2026-09-02T11:56:34Z</time></trkpt><trkpt lat="59.4712179434" lon="31.1132970080"><ele>62.62</ele><time>2026-09-02T11:56:48Z</time></trkpt><trkpt lat="59.4711805601" lon="31.1133563519"><ele>58.30</ele><time>2026-09-02T11:57:12Z</time></trkpt><trkpt lat="59.4712447654" lon="31.1133841798"><ele>64.07</ele><time>2026-09-02T11:57:37Z</time></trkpt><trkpt lat="59.4712113217" lon="31.1134943180"><ele>66.47</ele><time>2026-09-02T11:57:50Z</time></trkpt><trkpt lat="59.4711770397" lon="31.1136536580"><ele>66.95</ele><time>2026-09-02T11:58:04Z</time></trkpt><trkpt lat="59.4711476192" lon="31.1138348747"><ele>66.47</ele><time>2026-09-02T11:58:16Z</time></trkpt><trkpt lat="59.4711408298" lon="31.1139672250"><ele>68.87</ele><time>2026-09-02T11:58:28Z</time></trkpt><trkpt lat="59.4711402431" lon="31.1140456796"><ele>68.39</ele><time>2026-09-02T11:58:40Z</time></trkpt><trkpt lat="59.4711849187" lon="31.1141621880"><ele>68.87</ele><time>2026-09-02T11:58:53Z</time></trkpt><trkpt lat="59.4711633772" lon="31.1143020820"><ele>66.47</ele><time>2026-09-02T11:59:05Z</time></trkpt><trkpt lat="59.4711284246" lon="31.1144855618"><ele>63.58</ele><time>2026-09-02T11:59:20Z</time></trkpt><trkpt lat="59.4712091424" lon="31.1145562213"><ele>62.14</ele><time>2026-09-02T11:59:35Z</time></trkpt><trkpt lat="59.4712212961" lon="31.1147100292"><ele>61.66</ele><time>2026-09-02T11:59:49Z</time></trkpt><trkpt lat="59.4711919595" lon="31.1147845443"><ele>57.34</ele><time>2026-09-02T12:00:04Z</time></trkpt><trkpt lat="59.4711903669" lon="31.1147825327"><ele>53.97</ele><time>2026-09-02T12:00:29Z</time></trkpt><trkpt lat="59.4712150097" lon="31.1148265377"><ele>55.41</ele><time>2026-09-02T12:00:47Z</time></trkpt><trkpt lat="59.4712519739" lon="31.1148719676"><ele>53.97</ele><time>2026-09-02T12:01:23Z</time></trkpt><trkpt lat="59.4711762015" lon="31.1150536034"><ele>61.18</ele><time>2026-09-02T12:01:38Z</time></trkpt><trkpt lat="59.4710943103" lon="31.1150647514"><ele>66.95</ele><time>2026-09-02T12:01:58Z</time></trkpt><trkpt lat="59.4710907061" lon="31.1151122767"><ele>66.47</ele><time>2026-09-02T12:02:12Z</time></trkpt><trkpt lat="59.4710917957" lon="31.1151116900"><ele>65.03</ele><time>2026-09-02T12:02:29Z</time></trkpt><trkpt lat="59.4710658118" lon="31.1151681840"><ele>65.51</ele><time>2026-09-02T12:02:42Z</time></trkpt><trkpt lat="59.4710729364" lon="31.1152939126"><ele>65.03</ele><time>2026-09-02T12:02:56Z</time></trkpt><trkpt lat="59.4710477069" lon="31.1153453775"><ele>65.99</ele><time>2026-09-02T12:03:19Z</time></trkpt><trkpt lat="59.4710768759" lon="31.1153985187"><ele>65.99</ele><time>2026-09-02T12:03:31Z</time></trkpt><trkpt lat="59.4710802287" lon="31.1154137738"><ele>67.43</ele><time>2026-09-02T12:03:44Z</time></trkpt><trkpt lat="59.4710530713" lon="31.1154530011"><ele>68.39</ele><time>2026-09-02T12:03:54Z</time></trkpt><trkpt lat="59.4711319450" lon="31.1154517438"><ele>68.87</ele><time>2026-09-02T12:04:06Z</time></trkpt><trkpt lat="59.4711409137" lon="31.1155578587"><ele>66.47</ele><time>2026-09-02T12:04:20Z</time></trkpt><trkpt lat="59.4711510558" lon="31.1156427674"><ele>64.55</ele><time>2026-09-02T12:04:33Z</time></trkpt><trkpt lat="59.4711940549" lon="31.1157400813"><ele>61.18</ele><time>2026-09-02T12:04:45Z</time></trkpt><trkpt lat="59.4711693283" lon="31.1159186997"><ele>60.70</ele><time>2026-09-02T12:05:01Z</time></trkpt><trkpt lat="59.4711067993" lon="31.1160983238"><ele>63.10</ele><time>2026-09-02T12:05:17Z</time></trkpt><trkpt lat="59.4710728526" lon="31.1161823943"><ele>58.78</ele><time>2026-09-02T12:05:35Z</time></trkpt><trkpt lat="59.4710399956" lon="31.1161642056"><ele>52.53</ele><time>2026-09-02T12:06:00Z</time></trkpt><trkpt lat="59.4710577652" lon="31.1161835678"><ele>54.93</ele><time>2026-09-02T12:06:21Z</time></trkpt><trkpt lat="59.4711479545" lon="31.1161814723"><ele>55.89</ele><time>2026-09-02T12:06:42Z</time></trkpt><trkpt lat="59.4711914565" lon="31.1162627768"><ele>54.93</ele><time>2026-09-02T12:07:18Z</time></trkpt><trkpt lat="59.4712562487" lon="31.1162484437"><ele>57.34</ele><time>2026-09-02T12:07:56Z</time></trkpt><trkpt lat="59.4712228049" lon="31.1162657943"><ele>62.14</ele><time>2026-09-02T12:08:35Z</time></trkpt><trkpt lat="59.4711663947" lon="31.1163097154"><ele>68.39</ele><time>2026-09-02T12:09:18Z</time></trkpt><trkpt lat="59.4712178595" lon="31.1163039319"><ele>65.51</ele><time>2026-09-02T12:09:59Z</time></trkpt><trkpt lat="59.4711358007" lon="31.1163550615"><ele>69.83</ele><time>2026-09-02T12:10:37Z</time></trkpt><trkpt lat="59.4710666500" lon="31.1162968911"><ele>69.35</ele><time>2026-09-02T12:11:18Z</time></trkpt><trkpt lat="59.4710729364" lon="31.1162952147"><ele>68.39</ele><time>2026-09-02T12:11:57Z</time></trkpt><trkpt lat="59.4710479584" lon="31.1163471825"><ele>61.18</ele><time>2026-09-02T12:12:35Z</time></trkpt><trkpt lat="59.4711309392" lon="31.1161058675"><ele>59.26</ele><time>2026-09-02T12:13:01Z</time></trkpt><trkpt lat="59.4711400755" lon="31.1161413230"><ele>58.30</ele><time>2026-09-02T12:13:28Z</time></trkpt><trkpt lat="59.4710581005" lon="31.1160924565"><ele>66.95</ele><time>2026-09-02T12:13:56Z</time></trkpt><trkpt lat="59.4710889459" lon="31.1161150038"><ele>70.31</ele><time>2026-09-02T12:14:22Z</time></trkpt><trkpt lat="59.4711637124" lon="31.1164859869"><ele>65.51</ele><time>2026-09-02T12:14:38Z</time></trkpt><trkpt lat="59.4711218867" lon="31.1167226918"><ele>61.66</ele><time>2026-09-02T12:14:55Z</time></trkpt><trkpt lat="59.4711475354" lon="31.1168174911"><ele>65.03</ele><time>2026-09-02T12:15:09Z</time></trkpt><trkpt lat="59.4711881038" lon="31.1169549543"><ele>64.07</ele><time>2026-09-02T12:15:23Z</time></trkpt><trkpt lat="59.4712136686" lon="31.1170692835"><ele>61.18</ele><time>2026-09-02T12:15:36Z</time></trkpt><trkpt lat="59.4712506328" lon="31.1172825191"><ele>56.86</ele><time>2026-09-02T12:15:51Z</time></trkpt><trkpt lat="59.4712656364" lon="31.1173882987"><ele>51.09</ele><time>2026-09-02T12:16:08Z</time></trkpt><trkpt lat="59.4713235553" lon="31.1174472235"><ele>53.49</ele><time>2026-09-02T12:16:30Z</time></trkpt><trkpt lat="59.4714443386" lon="31.1176267639"><ele>53.49</ele><time>2026-09-02T12:16:47Z</time></trkpt><trkpt lat="59.4714876730" lon="31.1177049670"><ele>55.41</ele><time>2026-09-02T12:17:02Z</time></trkpt><trkpt lat="59.4714906067" lon="31.1177260056"><ele>53.97</ele><time>2026-09-02T12:17:29Z</time></trkpt><trkpt lat="59.4714190252" lon="31.1178271752"><ele>53.01</ele><time>2026-09-02T12:17:55Z</time></trkpt><trkpt lat="59.4714367110" lon="31.1178917997"><ele>61.18</ele><time>2026-09-02T12:18:14Z</time></trkpt><trkpt lat="59.4714249764" lon="31.1181727611"><ele>63.58</ele><time>2026-09-02T12:18:31Z</time></trkpt><trkpt lat="59.4714303408" lon="31.1182398163"><ele>62.62</ele><time>2026-09-02T12:18:45Z</time></trkpt><trkpt lat="59.4714525528" lon="31.1182162631"><ele>62.14</ele><time>2026-09-02T12:19:01Z</time></trkpt><trkpt lat="59.4714590069" lon="31.1182489526"><ele>64.07</ele><time>2026-09-02T12:19:15Z</time></trkpt><trkpt lat="59.4714464340" lon="31.1184141599"><ele>61.66</ele><time>2026-09-02T12:19:33Z</time></trkpt><trkpt lat="59.4713937957" lon="31.1186276469"><ele>61.18</ele><time>2026-09-02T12:19:51Z</time></trkpt><trkpt lat="59.4713590108" lon="31.1187982187"><ele>60.22</ele><time>2026-09-02T12:20:05Z</time></trkpt><trkpt lat="59.4713655487" lon="31.1189491767"><ele>60.70</ele><time>2026-09-02T12:20:20Z</time></trkpt><trkpt lat="59.4713707455" lon="31.1190111190"><ele>59.74</ele><time>2026-09-02T12:20:33Z</time></trkpt><trkpt lat="59.4713405706" lon="31.1191918328"><ele>59.26</ele><time>2026-09-02T12:20:48Z</time></trkpt><trkpt lat="59.4712949730" lon="31.1193403602"><ele>56.37</ele><time>2026-09-02T12:21:07Z</time></trkpt><trkpt lat="59.4712158479" lon="31.1194354109"><ele>54.93</ele><time>2026-09-02T12:21:23Z</time></trkpt><trkpt lat="59.4712054543" lon="31.1194486544"><ele>49.16</ele><time>2026-09-02T12:21:43Z</time></trkpt><trkpt lat="59.4711710047" lon="31.1194218323"><ele>47.72</ele><time>2026-09-02T12:22:04Z</time></trkpt><trkpt lat="59.4711938035" lon="31.1195746344"><ele>55.41</ele><time>2026-09-02T12:22:24Z</time></trkpt><trkpt lat="59.4711461943" lon="31.1197108403"><ele>62.62</ele><time>2026-09-02T12:22:40Z</time></trkpt><trkpt lat="59.4710705057" lon="31.1197363213"><ele>62.14</ele><time>2026-09-02T12:22:52Z</time></trkpt><trkpt lat="59.4710954838" lon="31.1198840104"><ele>59.26</ele><time>2026-09-02T12:23:07Z</time></trkpt><trkpt lat="59.4711084757" lon="31.1200043745"><ele>57.82</ele><time>2026-09-02T12:23:22Z</time></trkpt><trkpt lat="59.4711641315" lon="31.1200610362"><ele>63.10</ele><time>2026-09-02T12:23:37Z</time></trkpt><trkpt lat="59.4711988326" lon="31.1201355513"><ele>63.10</ele><time>2026-09-02T12:23:52Z</time></trkpt><trkpt lat="59.4712260738" lon="31.1202385649"><ele>61.66</ele><time>2026-09-02T12:24:06Z</time></trkpt><trkpt lat="59.4712936319" lon="31.1203873437"><ele>60.22</ele><time>2026-09-02T12:24:19Z</time></trkpt><trkpt lat="59.4713491201" lon="31.1205224600"><ele>58.30</ele><time>2026-09-02T12:24:31Z</time></trkpt><trkpt lat="59.4712824840" lon="31.1206991505"><ele>56.37</ele><time>2026-09-02T12:24:48Z</time></trkpt><trkpt lat="59.4712800533" lon="31.1209216062"><ele>56.37</ele><time>2026-09-02T12:25:03Z</time></trkpt><trkpt lat="59.4713361282" lon="31.1210676190"><ele>57.82</ele><time>2026-09-02T12:25:18Z</time></trkpt><trkpt lat="59.4713411573" lon="31.1211991310"><ele>55.41</ele><time>2026-09-02T12:25:37Z</time></trkpt><trkpt lat="59.4712987449" lon="31.1211778410"><ele>48.20</ele><time>2026-09-02T12:26:06Z</time></trkpt><trkpt lat="59.4712912012" lon="31.1211032420"><ele>54.45</ele><time>2026-09-02T12:26:24Z</time></trkpt><trkpt lat="59.4712920394" lon="31.1213355046"><ele>54.93</ele><time>2026-09-02T12:26:39Z</time></trkpt><trkpt lat="59.4712621160" lon="31.1215240136"><ele>57.82</ele><time>2026-09-02T12:26:52Z</time></trkpt><trkpt lat="59.4712384790" lon="31.1216869578"><ele>61.18</ele><time>2026-09-02T12:27:10Z</time></trkpt><trkpt lat="59.4712558296" lon="31.1218893807"><ele>64.07</ele><time>2026-09-02T12:27:25Z</time></trkpt><trkpt lat="59.4712857530" lon="31.1220133491"><ele>61.66</ele><time>2026-09-02T12:27:40Z</time></trkpt><trkpt lat="59.4712928776" lon="31.1221441068"><ele>60.22</ele><time>2026-09-02T12:27:55Z</time></trkpt><trkpt lat="59.4712901115" lon="31.1222464498"><ele>56.86</ele><time>2026-09-02T12:28:09Z</time></trkpt><trkpt lat="59.4713168498" lon="31.1223866791"><ele>57.82</ele><time>2026-09-02T12:28:25Z</time></trkpt><trkpt lat="59.4713071268" lon="31.1225575022"><ele>57.82</ele><time>2026-09-02T12:28:44Z</time></trkpt><trkpt lat="59.4712792989" lon="31.1226373818"><ele>56.86</ele><time>2026-09-02T12:29:01Z</time></trkpt><trkpt lat="59.4712676480" lon="31.1227313429"><ele>61.66</ele><time>2026-09-02T12:29:18Z</time></trkpt><trkpt lat="59.4712468609" lon="31.1228606757"><ele>65.03</ele><time>2026-09-02T12:29:35Z</time></trkpt><trkpt lat="59.4712391496" lon="31.1229761783"><ele>65.51</ele><time>2026-09-02T12:29:50Z</time></trkpt><trkpt lat="59.4712490402" lon="31.1230238713"><ele>65.51</ele><time>2026-09-02T12:30:11Z</time></trkpt><trkpt lat="59.4711596891" lon="31.1231163237"><ele>66.95</ele><time>2026-09-02T12:30:40Z</time></trkpt><trkpt lat="59.4712508842" lon="31.1230775993"><ele>65.99</ele><time>2026-09-02T12:30:57Z</time></trkpt><trkpt lat="59.4712881837" lon="31.1230904236"><ele>67.91</ele><time>2026-09-02T12:31:15Z</time></trkpt><trkpt lat="59.4712258223" lon="31.1230971292"><ele>66.47</ele><time>2026-09-02T12:31:33Z</time></trkpt><trkpt lat="59.4712192845" lon="31.1231558863"><ele>68.39</ele><time>2026-09-02T12:31:52Z</time></trkpt><trkpt lat="59.4711532351" lon="31.1231922638"><ele>73.68</ele><time>2026-09-02T12:32:15Z</time></trkpt><trkpt lat="59.4710502215" lon="31.1231641844"><ele>72.24</ele><time>2026-09-02T12:32:32Z</time></trkpt><trkpt lat="59.4710719306" lon="31.1232040823"><ele>71.27</ele><time>2026-09-02T12:32:49Z</time></trkpt><trkpt lat="59.4711577613" lon="31.1233152263"><ele>75.60</ele><time>2026-09-02T12:33:13Z</time></trkpt><trkpt lat="59.4711715076" lon="31.1232552957"><ele>78.48</ele><time>2026-09-02T12:33:33Z</time></trkpt><trkpt lat="59.4710654765" lon="31.1232197564"><ele>73.68</ele><time>2026-09-02T12:33:48Z</time></trkpt><trkpt lat="59.4711696636" lon="31.1232823692"><ele>75.12</ele><time>2026-09-02T12:34:09Z</time></trkpt><trkpt lat="59.4711455237" lon="31.1233168188"><ele>74.64</ele><time>2026-09-02T12:34:35Z</time></trkpt><trkpt lat="59.4711435959" lon="31.1233641766"><ele>71.27</ele><time>2026-09-02T12:34:57Z</time></trkpt><trkpt lat="59.4711891934" lon="31.1234746501"><ele>70.31</ele><time>2026-09-02T12:35:12Z</time></trkpt><trkpt lat="59.4711839128" lon="31.1236720439"><ele>67.43</ele><time>2026-09-02T12:35:24Z</time></trkpt><trkpt lat="59.4711101521" lon="31.1238546856"><ele>64.55</ele><time>2026-09-02T12:35:41Z</time></trkpt><trkpt lat="59.4710523169" lon="31.1241081543"><ele>63.58</ele><time>2026-09-02T12:35:56Z</time></trkpt><trkpt lat="59.4710108265" lon="31.1241557635"><ele>61.66</ele><time>2026-09-02T12:36:10Z</time></trkpt><trkpt lat="59.4709664024" lon="31.1242155265"><ele>61.18</ele><time>2026-09-02T12:36:25Z</time></trkpt><trkpt lat="59.4709272590" lon="31.1242628843"><ele>61.18</ele><time>2026-09-02T12:36:40Z</time></trkpt><trkpt lat="59.4709329586" lon="31.1244361382"><ele>58.30</ele><time>2026-09-02T12:36:55Z</time></trkpt><trkpt lat="59.4709917996" lon="31.1245731823"><ele>58.30</ele><time>2026-09-02T12:37:10Z</time></trkpt><trkpt lat="59.4710256625" lon="31.1246593483"><ele>59.74</ele><time>2026-09-02T12:37:23Z</time></trkpt><trkpt lat="59.4710172806" lon="31.1246820632"><ele>59.26</ele><time>2026-09-02T12:37:36Z</time></trkpt><trkpt lat="59.4710215554" lon="31.1247265711"><ele>61.66</ele><time>2026-09-02T12:37:56Z</time></trkpt><trkpt lat="59.4709847588" lon="31.1247410718"><ele>60.22</ele><time>2026-09-02T12:38:20Z</time></trkpt><trkpt lat="59.4710273389" lon="31.1248948798"><ele>63.58</ele><time>2026-09-02T12:38:33Z</time></trkpt><trkpt lat="59.4711096492" lon="31.1249427404"><ele>63.10</ele><time>2026-09-02T12:38:49Z</time></trkpt><trkpt lat="59.4711253233" lon="31.1249974743"><ele>58.78</ele><time>2026-09-02T12:39:13Z</time></trkpt><trkpt lat="59.4710877724" lon="31.1249933671"><ele>57.34</ele><time>2026-09-02T12:39:34Z</time></trkpt><trkpt lat="59.4710393250" lon="31.1248692311"><ele>63.58</ele><time>2026-09-02T12:39:53Z</time></trkpt><trkpt lat="59.4710111618" lon="31.1248166766"><ele>67.43</ele><time>2026-09-02T12:40:07Z</time></trkpt><trkpt lat="59.4709849264" lon="31.1248403974"><ele>69.83</ele><time>2026-09-02T12:40:30Z</time></trkpt><trkpt lat="59.4709215593" lon="31.1247546505"><ele>71.76</ele><time>2026-09-02T12:40:43Z</time></trkpt><trkpt lat="59.4708928932" lon="31.1247036885"><ele>72.72</ele><time>2026-09-02T12:40:58Z</time></trkpt><trkpt lat="59.4709752873" lon="31.1246425007"><ele>69.83</ele><time>2026-09-02T12:41:17Z</time></trkpt><trkpt lat="59.4709967449" lon="31.1246583425"><ele>68.87</ele><time>2026-09-02T12:41:32Z</time></trkpt><trkpt lat="59.4709934760" lon="31.1245014332"><ele>68.87</ele><time>2026-09-02T12:41:53Z</time></trkpt><trkpt lat="59.4709829148" lon="31.1244715098"><ele>76.08</ele><time>2026-09-02T12:42:28Z</time></trkpt><trkpt lat="59.4709954876" lon="31.1244810652"><ele>80.41</ele><time>2026-09-02T12:42:41Z</time></trkpt><trkpt lat="59.4709911291" lon="31.1245113239"><ele>76.08</ele><time>2026-09-02T12:42:54Z</time></trkpt><trkpt lat="59.4709297735" lon="31.1245872639"><ele>71.76</ele><time>2026-09-02T12:43:07Z</time></trkpt><trkpt lat="59.4709267560" lon="31.1245923769"><ele>72.24</ele><time>2026-09-02T12:43:08Z</time></trkpt><trkpt lat="59.4708989281" lon="31.1245505512"><ele>69.83</ele><time>2026-09-02T12:43:20Z</time></trkpt><trkpt lat="59.4708627183" lon="31.1245476175"><ele>70.79</ele><time>2026-09-02T12:43:32Z</time></trkpt><trkpt lat="59.4708050508" lon="31.1246089730"><ele>66.95</ele><time>2026-09-02T12:43:47Z</time></trkpt><trkpt lat="59.4707996864" lon="31.1246424168"><ele>63.58</ele><time>2026-09-02T12:44:03Z</time></trkpt><trkpt lat="59.4707285240" lon="31.1246301793"><ele>65.51</ele><time>2026-09-02T12:44:19Z</time></trkpt><trkpt lat="59.4706817530" lon="31.1247234698"><ele>65.51</ele><time>2026-09-02T12:44:32Z</time></trkpt><trkpt lat="59.4706069026" lon="31.1247993261"><ele>65.03</ele><time>2026-09-02T12:44:47Z</time></trkpt><trkpt lat="59.4705535099" lon="31.1248208676"><ele>65.03</ele><time>2026-09-02T12:45:03Z</time></trkpt><trkpt lat="59.4704975188" lon="31.1247510463"><ele>64.55</ele><time>2026-09-02T12:45:15Z</time></trkpt><trkpt lat="59.4704784919" lon="31.1247650441"><ele>62.62</ele><time>2026-09-02T12:45:28Z</time></trkpt><trkpt lat="59.4704482332" lon="31.1247193627"><ele>59.74</ele><time>2026-09-02T12:45:43Z</time></trkpt><trkpt lat="59.4703536853" lon="31.1246085539"><ele>60.70</ele><time>2026-09-02T12:45:58Z</time></trkpt><trkpt lat="59.4702883903" lon="31.1244705878"><ele>60.70</ele><time>2026-09-02T12:46:11Z</time></trkpt><trkpt lat="59.4702589698" lon="31.1244112439"><ele>58.78</ele><time>2026-09-02T12:46:26Z</time></trkpt><trkpt lat="59.4702453911" lon="31.1243153550"><ele>57.34</ele><time>2026-09-02T12:46:52Z</time></trkpt><trkpt lat="59.4701756537" lon="31.1244298518"><ele>55.89</ele><time>2026-09-02T12:47:15Z</time></trkpt><trkpt lat="59.4702176470" lon="31.1243353877"><ele>56.86</ele><time>2026-09-02T12:47:31Z</time></trkpt><trkpt lat="59.4702223409" lon="31.1243667360"><ele>53.97</ele><time>2026-09-02T12:47:52Z</time></trkpt><trkpt lat="59.4701691158" lon="31.1243024468"><ele>55.41</ele><time>2026-09-02T12:48:06Z</time></trkpt><trkpt lat="59.4701400306" lon="31.1241993494"><ele>57.82</ele><time>2026-09-02T12:48:17Z</time></trkpt><trkpt lat="59.4700445607" lon="31.1241829209"><ele>60.70</ele><time>2026-09-02T12:48:32Z</time></trkpt><trkpt lat="59.4699693751" lon="31.1241994333"><ele>65.03</ele><time>2026-09-02T12:48:46Z</time></trkpt><trkpt lat="59.4699360151" lon="31.1241954938"><ele>65.51</ele><time>2026-09-02T12:49:02Z</time></trkpt><trkpt lat="59.4699023198" lon="31.1242058035"><ele>62.62</ele><time>2026-09-02T12:49:15Z</time></trkpt><trkpt lat="59.4698223565" lon="31.1243019439"><ele>61.66</ele><time>2026-09-02T12:49:30Z</time></trkpt><trkpt lat="59.4697617553" lon="31.1244184524"><ele>60.22</ele><time>2026-09-02T12:49:42Z</time></trkpt><trkpt lat="59.4696917664" lon="31.1243694182"><ele>59.26</ele><time>2026-09-02T12:49:55Z</time></trkpt><trkpt lat="59.4696338475" lon="31.1244334560"><ele>57.34</ele><time>2026-09-02T12:50:08Z</time></trkpt><trkpt lat="59.4695664570" lon="31.1244766228"><ele>56.86</ele><time>2026-09-02T12:50:22Z</time></trkpt><trkpt lat="59.4695103820" lon="31.1245009303"><ele>58.30</ele><time>2026-09-02T12:50:36Z</time></trkpt><trkpt lat="59.4694761839" lon="31.1245208792"><ele>56.86</ele><time>2026-09-02T12:51:00Z</time></trkpt><trkpt lat="59.4694826379" lon="31.1245557480"><ele>56.37</ele><time>2026-09-02T12:51:22Z</time></trkpt><trkpt lat="59.4695244636" lon="31.1245223042"><ele>65.51</ele><time>2026-09-02T12:51:51Z</time></trkpt><trkpt lat="59.4695416465" lon="31.1243996769"><ele>66.95</ele><time>2026-09-02T12:52:05Z</time></trkpt><trkpt lat="59.4695433229" lon="31.1243017763"><ele>66.95</ele><time>2026-09-02T12:52:17Z</time></trkpt><trkpt lat="59.4695108850" lon="31.1242534965"><ele>61.66</ele><time>2026-09-02T12:52:30Z</time></trkpt><trkpt lat="59.4694598392" lon="31.1241606250"><ele>60.70</ele><time>2026-09-02T12:52:44Z</time></trkpt><trkpt lat="59.4693784509" lon="31.1240377463"><ele>59.74</ele><time>2026-09-02T12:53:00Z</time></trkpt><trkpt lat="59.4692684803" lon="31.1239094194"><ele>59.26</ele><time>2026-09-02T12:53:15Z</time></trkpt><trkpt lat="59.4693293329" lon="31.1237855349"><ele>57.34</ele><time>2026-09-02T12:53:26Z</time></trkpt><trkpt lat="59.4693310093" lon="31.1236400250"><ele>56.37</ele><time>2026-09-02T12:53:39Z</time></trkpt><trkpt lat="59.4693235494" lon="31.1234942637"><ele>56.86</ele><time>2026-09-02T12:53:54Z</time></trkpt><trkpt lat="59.4693277404" lon="31.1233290564"><ele>56.37</ele><time>2026-09-02T12:54:09Z</time></trkpt><trkpt lat="59.4693968073" lon="31.1231387872"><ele>58.30</ele><time>2026-09-02T12:54:23Z</time></trkpt><trkpt lat="59.4695024192" lon="31.1230459996"><ele>56.37</ele><time>2026-09-02T12:54:38Z</time></trkpt><trkpt lat="59.4695368689" lon="31.1229271442"><ele>55.41</ele><time>2026-09-02T12:54:53Z</time></trkpt><trkpt lat="59.4695449155" lon="31.1228232924"><ele>51.57</ele><time>2026-09-02T12:55:09Z</time></trkpt><trkpt lat="59.4695916027" lon="31.1227660440"><ele>46.28</ele><time>2026-09-02T12:55:29Z</time></trkpt><trkpt lat="59.4695294090" lon="31.1227990687"><ele>46.76</ele><time>2026-09-02T12:55:51Z</time></trkpt><trkpt lat="59.4694704842" lon="31.1227792036"><ele>50.61</ele><time>2026-09-02T12:56:08Z</time></trkpt><trkpt lat="59.4694907684" lon="31.1228320096"><ele>55.89</ele><time>2026-09-02T12:56:33Z</time></trkpt><trkpt lat="59.4694482721" lon="31.1228039302"><ele>56.37</ele><time>2026-09-02T12:56:50Z</time></trkpt><trkpt lat="59.4694330171" lon="31.1227787007"><ele>54.45</ele><time>2026-09-02T12:57:10Z</time></trkpt><trkpt lat="59.4693536405" lon="31.1228118092"><ele>55.41</ele><time>2026-09-02T12:57:24Z</time></trkpt><trkpt lat="59.4692964759" lon="31.1227217875"><ele>54.45</ele><time>2026-09-02T12:57:36Z</time></trkpt><trkpt lat="59.4693205319" lon="31.1226466019"><ele>56.86</ele><time>2026-09-02T12:57:53Z</time></trkpt><trkpt lat="59.4693483599" lon="31.1225805525"><ele>67.91</ele><time>2026-09-02T12:58:07Z</time></trkpt><trkpt lat="59.4693251420" lon="31.1225269083"><ele>71.76</ele><time>2026-09-02T12:58:28Z</time></trkpt><trkpt lat="59.4693399779" lon="31.1225681473"><ele>72.24</ele><time>2026-09-02T12:58:44Z</time></trkpt><trkpt lat="59.4693539757" lon="31.1225433368"><ele>72.24</ele><time>2026-09-02T12:59:03Z</time></trkpt><trkpt lat="59.4693681411" lon="31.1225006729"><ele>73.20</ele><time>2026-09-02T12:59:25Z</time></trkpt><trkpt lat="59.4693292491" lon="31.1228255555"><ele>69.83</ele><time>2026-09-02T12:59:39Z</time></trkpt><trkpt lat="59.4692843221" lon="31.1228626873"><ele>68.87</ele><time>2026-09-02T12:59:56Z</time></trkpt><trkpt lat="59.4692890998" lon="31.1227502022"><ele>66.95</ele><time>2026-09-02T13:00:12Z</time></trkpt><trkpt lat="59.4693286624" lon="31.1227443349"><ele>65.03</ele><time>2026-09-02T13:00:26Z</time></trkpt><trkpt lat="59.4693366252" lon="31.1227568239"><ele>62.62</ele><time>2026-09-02T13:00:44Z</time></trkpt><trkpt lat="59.4693456776" lon="31.1227097176"><ele>62.14</ele><time>2026-09-02T13:00:59Z</time></trkpt><trkpt lat="59.4693573285" lon="31.1227160040"><ele>63.58</ele><time>2026-09-02T13:01:16Z</time></trkpt><trkpt lat="59.4693458453" lon="31.1227018386"><ele>64.55</ele><time>2026-09-02T13:01:32Z</time></trkpt><trkpt lat="59.4693362899" lon="31.1226104759"><ele>65.51</ele><time>2026-09-02T13:01:46Z</time></trkpt><trkpt lat="59.4693308417" lon="31.1225808039"><ele>65.51</ele><time>2026-09-02T13:01:59Z</time></trkpt><trkpt lat="59.4693408161" lon="31.1226121522"><ele>66.95</ele><time>2026-09-02T13:02:15Z</time></trkpt><trkpt lat="59.4693763554" lon="31.1225667223"><ele>65.51</ele><time>2026-09-02T13:02:31Z</time></trkpt><trkpt lat="59.4693854917" lon="31.1225626990"><ele>64.07</ele><time>2026-09-02T13:02:48Z</time></trkpt><trkpt lat="59.4694498647" lon="31.1225256510"><ele>65.03</ele><time>2026-09-02T13:03:01Z</time></trkpt><trkpt lat="59.4694851525" lon="31.1225656327"><ele>63.58</ele><time>2026-09-02T13:03:18Z</time></trkpt><trkpt lat="59.4695033412" lon="31.1226381361"><ele>63.10</ele><time>2026-09-02T13:03:30Z</time></trkpt><trkpt lat="59.4695655350" lon="31.1225713324"><ele>65.99</ele><time>2026-09-02T13:03:52Z</time></trkpt><trkpt lat="59.4695672952" lon="31.1225213762"><ele>65.51</ele><time>2026-09-02T13:04:06Z</time></trkpt><trkpt lat="59.4695880823" lon="31.1223817337"><ele>63.58</ele><time>2026-09-02T13:04:19Z</time></trkpt><trkpt lat="59.4695940334" lon="31.1223515589"><ele>60.70</ele><time>2026-09-02T13:04:36Z</time></trkpt><trkpt lat="59.4695668761" lon="31.1222278420"><ele>62.14</ele><time>2026-09-02T13:04:49Z</time></trkpt><trkpt lat="59.4695430715" lon="31.1221168656"><ele>59.26</ele><time>2026-09-02T13:05:03Z</time></trkpt><trkpt lat="59.4694965519" lon="31.1219882034"><ele>59.74</ele><time>2026-09-02T13:05:16Z</time></trkpt><trkpt lat="59.4695694745" lon="31.1218698509"><ele>60.22</ele><time>2026-09-02T13:05:30Z</time></trkpt><trkpt lat="59.4695588294" lon="31.1217249278"><ele>61.18</ele><time>2026-09-02T13:05:45Z</time></trkpt><trkpt lat="59.4695762638" lon="31.1215566192"><ele>59.74</ele><time>2026-09-02T13:05:59Z</time></trkpt><trkpt lat="59.4695985597" lon="31.1213141307"><ele>55.89</ele><time>2026-09-02T13:06:14Z</time></trkpt><trkpt lat="59.4695429876" lon="31.1212230194"><ele>54.45</ele><time>2026-09-02T13:06:28Z</time></trkpt><trkpt lat="59.4695999846" lon="31.1210440658"><ele>52.53</ele><time>2026-09-02T13:06:42Z</time></trkpt><trkpt lat="59.4696143176" lon="31.1208234541"><ele>53.49</ele><time>2026-09-02T13:06:58Z</time></trkpt><trkpt lat="59.4696340989" lon="31.1208645254"><ele>49.16</ele><time>2026-09-02T13:07:23Z</time></trkpt><trkpt lat="59.4696373679" lon="31.1208020803"><ele>49.65</ele><time>2026-09-02T13:07:44Z</time></trkpt><trkpt lat="59.4696304109" lon="31.1207869928"><ele>51.09</ele><time>2026-09-02T13:08:10Z</time></trkpt><trkpt lat="59.4695942849" lon="31.1207809579"><ele>52.05</ele><time>2026-09-02T13:08:41Z</time></trkpt><trkpt lat="59.4695760123" lon="31.1207872443"><ele>54.45</ele><time>2026-09-02T13:09:08Z</time></trkpt><trkpt lat="59.4695872441" lon="31.1207219493"><ele>60.70</ele><time>2026-09-02T13:09:26Z</time></trkpt><trkpt lat="59.4695666246" lon="31.1205633637"><ele>59.26</ele><time>2026-09-02T13:09:40Z</time></trkpt><trkpt lat="59.4695118070" lon="31.1203865055"><ele>60.70</ele><time>2026-09-02T13:09:55Z</time></trkpt><trkpt lat="59.4695108850" lon="31.1202974059"><ele>63.10</ele><time>2026-09-02T13:10:08Z</time></trkpt><trkpt lat="59.4695301633" lon="31.1203725077"><ele>65.51</ele><time>2026-09-02T13:10:31Z</time></trkpt><trkpt lat="59.4695970509" lon="31.1203675624"><ele>67.43</ele><time>2026-09-02T13:10:53Z</time></trkpt><trkpt lat="59.4696485996" lon="31.1202995852"><ele>73.68</ele><time>2026-09-02T13:11:19Z</time></trkpt><trkpt lat="59.4696526229" lon="31.1203087214"><ele>74.16</ele><time>2026-09-02T13:11:39Z</time></trkpt><trkpt lat="59.4695905969" lon="31.1201795563"><ele>73.68</ele><time>2026-09-02T13:11:52Z</time></trkpt><trkpt lat="59.4695171714" lon="31.1201404966"><ele>67.91</ele><time>2026-09-02T13:12:04Z</time></trkpt><trkpt lat="59.4694824703" lon="31.1199454498"><ele>66.47</ele><time>2026-09-02T13:12:20Z</time></trkpt><trkpt lat="59.4694513734" lon="31.1197454575"><ele>64.07</ele><time>2026-09-02T13:12:37Z</time></trkpt><trkpt lat="59.4694687240" lon="31.1195596308"><ele>65.99</ele><time>2026-09-02T13:12:49Z</time></trkpt><trkpt lat="59.4694460090" lon="31.1193972733"><ele>67.91</ele><time>2026-09-02T13:13:02Z</time></trkpt><trkpt lat="59.4694742560" lon="31.1192067526"><ele>63.58</ele><time>2026-09-02T13:13:18Z</time></trkpt><trkpt lat="59.4694637787" lon="31.1190715525"><ele>60.22</ele><time>2026-09-02T13:13:31Z</time></trkpt><trkpt lat="59.4694582466" lon="31.1188455764"><ele>58.78</ele><time>2026-09-02T13:13:46Z</time></trkpt><trkpt lat="59.4694741722" lon="31.1187550519"><ele>53.49</ele><time>2026-09-02T13:14:03Z</time></trkpt><trkpt lat="59.4694290776" lon="31.1187565606"><ele>48.68</ele><time>2026-09-02T13:14:29Z</time></trkpt><trkpt lat="59.4693687279" lon="31.1188532040"><ele>54.93</ele><time>2026-09-02T13:14:54Z</time></trkpt><trkpt lat="59.4693217892" lon="31.1186621804"><ele>59.74</ele><time>2026-09-02T13:15:09Z</time></trkpt><trkpt lat="59.4693264831" lon="31.1184780300"><ele>58.30</ele><time>2026-09-02T13:15:23Z</time></trkpt><trkpt lat="59.4693025108" lon="31.1183333583"><ele>59.74</ele><time>2026-09-02T13:15:36Z</time></trkpt><trkpt lat="59.4693951309" lon="31.1181045324"><ele>65.03</ele><time>2026-09-02T13:15:51Z</time></trkpt><trkpt lat="59.4693731703" lon="31.1179715116"><ele>65.99</ele><time>2026-09-02T13:16:04Z</time></trkpt><trkpt lat="59.4694078714" lon="31.1178055499"><ele>66.95</ele><time>2026-09-02T13:16:19Z</time></trkpt><trkpt lat="59.4693481922" lon="31.1176783964"><ele>62.62</ele><time>2026-09-02T13:16:32Z</time></trkpt><trkpt lat="59.4693319313" lon="31.1175878718"><ele>61.66</ele><time>2026-09-02T13:16:44Z</time></trkpt><trkpt lat="59.4693433307" lon="31.1174515821"><ele>60.22</ele><time>2026-09-02T13:17:01Z</time></trkpt><trkpt lat="59.4693642855" lon="31.1173797492"><ele>56.86</ele><time>2026-09-02T13:17:16Z</time></trkpt><trkpt lat="59.4693156704" lon="31.1173049826"><ele>52.53</ele><time>2026-09-02T13:17:40Z</time></trkpt><trkpt lat="59.4693073723" lon="31.1173563637"><ele>56.37</ele><time>2026-09-02T13:18:07Z</time></trkpt><trkpt lat="59.4692841545" lon="31.1174292862"><ele>58.30</ele><time>2026-09-02T13:18:34Z</time></trkpt><trkpt lat="59.4692104775" lon="31.1174295377"><ele>62.14</ele><time>2026-09-02T13:18:57Z</time></trkpt><trkpt lat="59.4692545664" lon="31.1174090020"><ele>65.03</ele><time>2026-09-02T13:19:20Z</time></trkpt><trkpt lat="59.4693797920" lon="31.1172881350"><ele>67.43</ele><time>2026-09-02T13:19:36Z</time></trkpt><trkpt lat="59.4694502000" lon="31.1171691120"><ele>65.51</ele><time>2026-09-02T13:19:50Z</time></trkpt><trkpt lat="59.4694943726" lon="31.1170184892"><ele>64.07</ele><time>2026-09-02T13:20:06Z</time></trkpt><trkpt lat="59.4695277326" lon="31.1169244442"><ele>63.10</ele><time>2026-09-02T13:20:22Z</time></trkpt><trkpt lat="59.4695374556" lon="31.1168650165"><ele>62.62</ele><time>2026-09-02T13:20:39Z</time></trkpt><trkpt lat="59.4695118070" lon="31.1166714784"><ele>63.58</ele><time>2026-09-02T13:20:53Z</time></trkpt><trkpt lat="59.4694555644" lon="31.1165274773"><ele>63.10</ele><time>2026-09-02T13:21:07Z</time></trkpt><trkpt lat="59.4695300795" lon="31.1164489388"><ele>62.62</ele><time>2026-09-02T13:21:23Z</time></trkpt><trkpt lat="59.4695493579" lon="31.1162378825"><ele>62.62</ele><time>2026-09-02T13:21:40Z</time></trkpt><trkpt lat="59.4695491064" lon="31.1159627885"><ele>62.62</ele><time>2026-09-02T13:21:55Z</time></trkpt><trkpt lat="59.4695171714" lon="31.1158971582"><ele>61.18</ele><time>2026-09-02T13:22:09Z</time></trkpt><trkpt lat="59.4695238769" lon="31.1158620380"><ele>59.74</ele><time>2026-09-02T13:22:21Z</time></trkpt><trkpt lat="59.4694811292" lon="31.1156827491"><ele>57.34</ele><time>2026-09-02T13:22:35Z</time></trkpt><trkpt lat="59.4694740884" lon="31.1156372353"><ele>57.34</ele><time>2026-09-02T13:22:52Z</time></trkpt><trkpt lat="59.4695052691" lon="31.1156272609"><ele>57.34</ele><time>2026-09-02T13:23:06Z</time></trkpt><trkpt lat="59.4694847334" lon="31.1156876106"><ele>59.74</ele><time>2026-09-02T13:23:28Z</time></trkpt><trkpt lat="59.4695067778" lon="31.1157068890"><ele>66.95</ele><time>2026-09-02T13:24:06Z</time></trkpt><trkpt lat="59.4693932869" lon="31.1156738643"><ele>73.20</ele><time>2026-09-02T13:24:34Z</time></trkpt><trkpt lat="59.4693745952" lon="31.1155256722"><ele>72.72</ele><time>2026-09-02T13:24:55Z</time></trkpt><trkpt lat="59.4694471825" lon="31.1152189784"><ele>68.87</ele><time>2026-09-02T13:25:16Z</time></trkpt><trkpt lat="59.4694761839" lon="31.1150057428"><ele>67.43</ele><time>2026-09-02T13:25:33Z</time></trkpt><trkpt lat="59.4695049338" lon="31.1148559581"><ele>63.58</ele><time>2026-09-02T13:25:50Z</time></trkpt><trkpt lat="59.4695507828" lon="31.1146592349"><ele>61.66</ele><time>2026-09-02T13:26:06Z</time></trkpt><trkpt lat="59.4695375394" lon="31.1144467536"><ele>61.18</ele><time>2026-09-02T13:26:19Z</time></trkpt><trkpt lat="59.4695097115" lon="31.1142662074"><ele>60.70</ele><time>2026-09-02T13:26:35Z</time></trkpt><trkpt lat="59.4694973063" lon="31.1141092982"><ele>60.22</ele><time>2026-09-02T13:26:52Z</time></trkpt><trkpt lat="59.4695198536" lon="31.1139496230"><ele>60.70</ele><time>2026-09-02T13:27:08Z</time></trkpt><trkpt lat="59.4695431553" lon="31.1138376407"><ele>61.18</ele><time>2026-09-02T13:27:20Z</time></trkpt><trkpt lat="59.4695429038" lon="31.1138531473"><ele>61.66</ele><time>2026-09-02T13:27:32Z</time></trkpt><trkpt lat="59.4695099629" lon="31.1138409935"><ele>59.74</ele><time>2026-09-02T13:27:54Z</time></trkpt><trkpt lat="59.4695106335" lon="31.1138432566"><ele>61.66</ele><time>2026-09-02T13:28:15Z</time></trkpt><trkpt lat="59.4694822188" lon="31.1136815697"><ele>64.07</ele><time>2026-09-02T13:28:44Z</time></trkpt><trkpt lat="59.4695137348" lon="31.1137097329"><ele>65.03</ele><time>2026-09-02T13:29:05Z</time></trkpt><trkpt lat="59.4694950432" lon="31.1136126705"><ele>62.14</ele><time>2026-09-02T13:29:17Z</time></trkpt><trkpt lat="59.4695098791" lon="31.1134198029"><ele>60.22</ele><time>2026-09-02T13:29:32Z</time></trkpt><trkpt lat="59.4695335161" lon="31.1132685933"><ele>60.22</ele><time>2026-09-02T13:29:46Z</time></trkpt><trkpt lat="59.4695067778" lon="31.1131303757"><ele>59.74</ele><time>2026-09-02T13:30:00Z</time></trkpt><trkpt lat="59.4695106335" lon="31.1130006239"><ele>57.34</ele><time>2026-09-02T13:30:12Z</time></trkpt><trkpt lat="59.4695133157" lon="31.1128577963"><ele>55.41</ele><time>2026-09-02T13:30:25Z</time></trkpt><trkpt lat="59.4695015810" lon="31.1127557047"><ele>56.37</ele><time>2026-09-02T13:30:41Z</time></trkpt><trkpt lat="59.4694637787" lon="31.1127394438"><ele>54.93</ele><time>2026-09-02T13:30:55Z</time></trkpt><trkpt lat="59.4694590010" lon="31.1126600672"><ele>53.49</ele><time>2026-09-02T13:31:10Z</time></trkpt><trkpt lat="59.4694037642" lon="31.1126221810"><ele>51.57</ele><time>2026-09-02T13:31:38Z</time></trkpt><trkpt lat="59.4694212824" lon="31.1125645973"><ele>53.97</ele><time>2026-09-02T13:32:03Z</time></trkpt><trkpt lat="59.4694588333" lon="31.1125138868"><ele>59.74</ele><time>2026-09-02T13:32:24Z</time></trkpt><trkpt lat="59.4694206119" lon="31.1122930236"><ele>64.07</ele><time>2026-09-02T13:32:39Z</time></trkpt><trkpt lat="59.4693574961" lon="31.1122878268"><ele>64.07</ele><time>2026-09-02T13:32:57Z</time></trkpt><trkpt lat="59.4692973979" lon="31.1122479290"><ele>63.10</ele><time>2026-09-02T13:33:10Z</time></trkpt><trkpt lat="59.4692564104" lon="31.1122249626"><ele>63.10</ele><time>2026-09-02T13:33:26Z</time></trkpt><trkpt lat="59.4691476971" lon="31.1121900938"><ele>62.62</ele><time>2026-09-02T13:33:41Z</time></trkpt><trkpt lat="59.4690880179" lon="31.1121617630"><ele>61.18</ele><time>2026-09-02T13:33:57Z</time></trkpt><trkpt lat="59.4691052847" lon="31.1120661255"><ele>59.74</ele><time>2026-09-02T13:34:12Z</time></trkpt><trkpt lat="59.4691383094" lon="31.1119919457"><ele>62.62</ele><time>2026-09-02T13:34:30Z</time></trkpt><trkpt lat="59.4691342022" lon="31.1119303387"><ele>64.55</ele><time>2026-09-02T13:34:50Z</time></trkpt><trkpt lat="59.4691304304" lon="31.1119248066"><ele>63.10</ele><time>2026-09-02T13:35:12Z</time></trkpt><trkpt lat="59.4690866768" lon="31.1119155027"><ele>60.22</ele><time>2026-09-02T13:35:26Z</time></trkpt><trkpt lat="59.4690580945" lon="31.1118817236"><ele>60.70</ele><time>2026-09-02T13:35:39Z</time></trkpt><trkpt lat="59.4690738525" lon="31.1118725035"><ele>59.74</ele><time>2026-09-02T13:36:04Z</time></trkpt><trkpt lat="59.4691643771" lon="31.1120035965"><ele>62.14</ele><time>2026-09-02T13:36:28Z</time></trkpt><trkpt lat="59.4692274928" lon="31.1120614316"><ele>61.66</ele><time>2026-09-02T13:36:43Z</time></trkpt><trkpt lat="59.4693032652" lon="31.1120516248"><ele>59.26</ele><time>2026-09-02T13:36:56Z</time></trkpt><trkpt lat="59.4693964720" lon="31.1120308377"><ele>55.41</ele><time>2026-09-02T13:37:11Z</time></trkpt><trkpt lat="59.4694678858" lon="31.1119462643"><ele>53.97</ele><time>2026-09-02T13:37:24Z</time></trkpt><trkpt lat="59.4694631081" lon="31.1117284186"><ele>53.49</ele><time>2026-09-02T13:37:38Z</time></trkpt><trkpt lat="59.4694952946" lon="31.1115513090"><ele>53.97</ele><time>2026-09-02T13:37:50Z</time></trkpt><trkpt lat="59.4694859069" lon="31.1114076432"><ele>53.97</ele><time>2026-09-02T13:38:03Z</time></trkpt><trkpt lat="59.4694747590" lon="31.1112265103"><ele>53.49</ele><time>2026-09-02T13:38:18Z</time></trkpt><trkpt lat="59.4694377109" lon="31.1109598819"><ele>55.41</ele><time>2026-09-02T13:38:35Z</time></trkpt><trkpt lat="59.4694411475" lon="31.1108701117"><ele>58.30</ele><time>2026-09-02T13:38:52Z</time></trkpt><trkpt lat="59.4694555644" lon="31.1108444631"><ele>58.30</ele><time>2026-09-02T13:39:03Z</time></trkpt><trkpt lat="59.4694602583" lon="31.1107858736"><ele>56.37</ele><time>2026-09-02T13:39:16Z</time></trkpt><trkpt lat="59.4694633596" lon="31.1107701156"><ele>54.93</ele><time>2026-09-02T13:39:34Z</time></trkpt><trkpt lat="59.4694485236" lon="31.1107897293"><ele>56.37</ele><time>2026-09-02T13:39:51Z</time></trkpt><trkpt lat="59.4694873318" lon="31.1108214129"><ele>57.82</ele><time>2026-09-02T13:40:14Z</time></trkpt><trkpt lat="59.4694517087" lon="31.1107082572"><ele>57.82</ele><time>2026-09-02T13:40:36Z</time></trkpt><trkpt lat="59.4697179180" lon="31.1110616382"><ele>59.74</ele><time>2026-09-02T13:45:07Z</time></trkpt><trkpt lat="59.4694914389" lon="31.1107442994"><ele>72.24</ele><time>2026-09-02T13:45:28Z</time></trkpt><trkpt lat="59.4694998208" lon="31.1107692774"><ele>67.91</ele><time>2026-09-02T13:45:53Z</time></trkpt><trkpt lat="59.4695243798" lon="31.1107247695"><ele>67.43</ele><time>2026-09-02T13:46:13Z</time></trkpt><trkpt lat="59.4695512857" lon="31.1108457204"><ele>65.51</ele><time>2026-09-02T13:46:37Z</time></trkpt><trkpt lat="59.4695522916" lon="31.1108602211"><ele>65.51</ele><time>2026-09-02T13:46:38Z</time></trkpt><trkpt lat="59.4695711508" lon="31.1108104326"><ele>64.07</ele><time>2026-09-02T13:47:00Z</time></trkpt><trkpt lat="59.4695167523" lon="31.1108358297"><ele>62.14</ele><time>2026-09-02T13:47:25Z</time></trkpt><trkpt lat="59.4695589133" lon="31.1108170543"><ele>63.58</ele><time>2026-09-02T13:47:57Z</time></trkpt><trkpt lat="59.4693763554" lon="31.1107167229"><ele>64.55</ele><time>2026-09-02T13:48:15Z</time></trkpt><trkpt lat="59.4692972302" lon="31.1105871387"><ele>63.58</ele><time>2026-09-02T13:48:29Z</time></trkpt><trkpt lat="59.4692195300" lon="31.1104866397"><ele>61.18</ele><time>2026-09-02T13:48:45Z</time></trkpt><trkpt lat="59.4691424165" lon="31.1104459036"><ele>60.22</ele><time>2026-09-02T13:49:00Z</time></trkpt><trkpt lat="59.4690764509" lon="31.1105334107"><ele>59.74</ele><time>2026-09-02T13:49:12Z</time></trkpt><trkpt lat="59.4689579308" lon="31.1106651742"><ele>58.30</ele><time>2026-09-02T13:49:29Z</time></trkpt><trkpt lat="59.4688981678" lon="31.1108013801"><ele>54.93</ele><time>2026-09-02T13:49:42Z</time></trkpt><trkpt lat="59.4688679092" lon="31.1108330637"><ele>52.53</ele><time>2026-09-02T13:49:57Z</time></trkpt><trkpt lat="59.4687571842" lon="31.1108701117"><ele>51.09</ele><time>2026-09-02T13:50:13Z</time></trkpt><trkpt lat="59.4687313680" lon="31.1109830160"><ele>50.61</ele><time>2026-09-02T13:50:31Z</time></trkpt><trkpt lat="59.4686276838" lon="31.1110899691"><ele>53.49</ele><time>2026-09-02T13:50:46Z</time></trkpt><trkpt lat="59.4685755484" lon="31.1110863648"><ele>52.53</ele><time>2026-09-02T13:51:00Z</time></trkpt><trkpt lat="59.4685799070" lon="31.1110809166"><ele>54.45</ele><time>2026-09-02T13:51:21Z</time></trkpt><trkpt lat="59.4685761351" lon="31.1112016160"><ele>53.97</ele><time>2026-09-02T13:51:43Z</time></trkpt><trkpt lat="59.4685350638" lon="31.1111659929"><ele>59.74</ele><time>2026-09-02T13:52:02Z</time></trkpt><trkpt lat="59.4684017077" lon="31.1111009493"><ele>60.22</ele><time>2026-09-02T13:52:16Z</time></trkpt><trkpt lat="59.4683384243" lon="31.1110474728"><ele>58.78</ele><time>2026-09-02T13:52:28Z</time></trkpt><trkpt lat="59.4682678487" lon="31.1109839380"><ele>57.82</ele><time>2026-09-02T13:52:42Z</time></trkpt><trkpt lat="59.4681695290" lon="31.1109400168"><ele>57.34</ele><time>2026-09-02T13:52:57Z</time></trkpt><trkpt lat="59.4680241868" lon="31.1109059863"><ele>56.86</ele><time>2026-09-02T13:53:12Z</time></trkpt><trkpt lat="59.4679641724" lon="31.1108282860"><ele>56.37</ele><time>2026-09-02T13:53:26Z</time></trkpt><trkpt lat="59.4679409545" lon="31.1108255200"><ele>56.37</ele><time>2026-09-02T13:53:29Z</time></trkpt><trkpt lat="59.4678791799" lon="31.1107867956"><ele>54.93</ele><time>2026-09-02T13:53:41Z</time></trkpt><trkpt lat="59.4679119531" lon="31.1107394379"><ele>54.93</ele><time>2026-09-02T13:54:06Z</time></trkpt><trkpt lat="59.4678965304" lon="31.1105951853"><ele>54.93</ele><time>2026-09-02T13:54:37Z</time></trkpt><trkpt lat="59.4679500069" lon="31.1106313113"><ele>53.01</ele><time>2026-09-02T13:55:12Z</time></trkpt><trkpt lat="59.4679449778" lon="31.1107952613"><ele>55.89</ele><time>2026-09-02T13:55:44Z</time></trkpt><trkpt lat="59.4678267930" lon="31.1109238397"><ele>55.89</ele><time>2026-09-02T13:55:59Z</time></trkpt><trkpt lat="59.4677736517" lon="31.1110717803"><ele>57.82</ele><time>2026-09-02T13:56:14Z</time></trkpt><trkpt lat="59.4677662756" lon="31.1112531647"><ele>55.41</ele><time>2026-09-02T13:56:29Z</time></trkpt><trkpt lat="59.4677374419" lon="31.1113948189"><ele>56.86</ele><time>2026-09-02T13:56:43Z</time></trkpt><trkpt lat="59.4677138887" lon="31.1114366446"><ele>52.53</ele><time>2026-09-02T13:57:05Z</time></trkpt><trkpt lat="59.4676737394" lon="31.1114763748"><ele>48.68</ele><time>2026-09-02T13:57:25Z</time></trkpt><trkpt lat="59.4677449856" lon="31.1114603654"><ele>51.09</ele><time>2026-09-02T13:58:04Z</time></trkpt><trkpt lat="59.4677262940" lon="31.1115730181"><ele>54.45</ele><time>2026-09-02T13:58:28Z</time></trkpt><trkpt lat="59.4677188341" lon="31.1114409193"><ele>58.78</ele><time>2026-09-02T13:58:50Z</time></trkpt><trkpt lat="59.4677822012" lon="31.1114650592"><ele>59.26</ele><time>2026-09-02T13:59:04Z</time></trkpt><trkpt lat="59.4678488374" lon="31.1115705874"><ele>57.82</ele><time>2026-09-02T13:59:20Z</time></trkpt><trkpt lat="59.4678663556" lon="31.1116316076"><ele>61.66</ele><time>2026-09-02T13:59:34Z</time></trkpt><trkpt lat="59.4678296428" lon="31.1116549093"><ele>62.62</ele><time>2026-09-02T13:59:51Z</time></trkpt><trkpt lat="59.4678063411" lon="31.1117092241"><ele>62.14</ele><time>2026-09-02T14:00:05Z</time></trkpt><trkpt lat="59.4677855540" lon="31.1117668916"><ele>67.91</ele><time>2026-09-02T14:00:23Z</time></trkpt><trkpt lat="59.4677742384" lon="31.1117060389"><ele>70.31</ele><time>2026-09-02T14:00:49Z</time></trkpt><trkpt lat="59.4677645992" lon="31.1116649676"><ele>68.87</ele><time>2026-09-02T14:01:09Z</time></trkpt><trkpt lat="59.4677392859" lon="31.1115850043"><ele>65.51</ele><time>2026-09-02T14:01:27Z</time></trkpt><trkpt lat="59.4676483423" lon="31.1116461921"><ele>65.03</ele><time>2026-09-02T14:01:42Z</time></trkpt><trkpt lat="59.4675795268" lon="31.1116691586"><ele>64.55</ele><time>2026-09-02T14:01:54Z</time></trkpt><trkpt lat="59.4674550556" lon="31.1115625408"><ele>60.22</ele><time>2026-09-02T14:02:12Z</time></trkpt><trkpt lat="59.4673716556" lon="31.1115066335"><ele>59.74</ele><time>2026-09-02T14:02:26Z</time></trkpt><trkpt lat="59.4672668818" lon="31.1115285940"><ele>60.22</ele><time>2026-09-02T14:02:39Z</time></trkpt><trkpt lat="59.4671893492" lon="31.1114612035"><ele>61.18</ele><time>2026-09-02T14:02:51Z</time></trkpt><trkpt lat="59.4671100564" lon="31.1114485469"><ele>61.18</ele><time>2026-09-02T14:03:03Z</time></trkpt><trkpt lat="59.4670127425" lon="31.1114437692"><ele>58.30</ele><time>2026-09-02T14:03:17Z</time></trkpt><trkpt lat="59.4669064600" lon="31.1113971658"><ele>55.41</ele><time>2026-09-02T14:03:30Z</time></trkpt><trkpt lat="59.4668228086" lon="31.1113682482"><ele>53.49</ele><time>2026-09-02T14:03:42Z</time></trkpt><trkpt lat="59.4667501375" lon="31.1112768017"><ele>49.65</ele><time>2026-09-02T14:03:56Z</time></trkpt><trkpt lat="59.4667280093" lon="31.1112211458"><ele>49.65</ele><time>2026-09-02T14:04:11Z</time></trkpt><trkpt lat="59.4667456951" lon="31.1111673340"><ele>49.65</ele><time>2026-09-02T14:04:25Z</time></trkpt><trkpt lat="59.4667076413" lon="31.1111142766"><ele>52.05</ele><time>2026-09-02T14:04:44Z</time></trkpt><trkpt lat="59.4667049590" lon="31.1110742111"><ele>57.34</ele><time>2026-09-02T14:05:06Z</time></trkpt><trkpt lat="59.4666831661" lon="31.1109753884"><ele>60.70</ele><time>2026-09-02T14:05:25Z</time></trkpt><trkpt lat="59.4666561764" lon="31.1108250171"><ele>59.74</ele><time>2026-09-02T14:05:36Z</time></trkpt><trkpt lat="59.4666148536" lon="31.1107675172"><ele>57.82</ele><time>2026-09-02T14:05:45Z</time></trkpt><trkpt lat="59.4665678311" lon="31.1106307246"><ele>57.34</ele><time>2026-09-02T14:05:57Z</time></trkpt><trkpt lat="59.4665277656" lon="31.1105563771"><ele>57.34</ele><time>2026-09-02T14:06:10Z</time></trkpt><trkpt lat="59.4664785638" lon="31.1104785092"><ele>57.34</ele><time>2026-09-02T14:06:23Z</time></trkpt><trkpt lat="59.4663955830" lon="31.1103445664"><ele>56.37</ele><time>2026-09-02T14:06:37Z</time></trkpt><trkpt lat="59.4663441181" lon="31.1101343483"><ele>55.89</ele><time>2026-09-02T14:06:51Z</time></trkpt><trkpt lat="59.4662815053" lon="31.1101129744"><ele>54.93</ele><time>2026-09-02T14:07:02Z</time></trkpt><trkpt lat="59.4661670923" lon="31.1100331787"><ele>56.86</ele><time>2026-09-02T14:07:16Z</time></trkpt><trkpt lat="59.4660701137" lon="31.1099539697"><ele>54.93</ele><time>2026-09-02T14:07:28Z</time></trkpt><trkpt lat="59.4659839477" lon="31.1098797061"><ele>48.68</ele><time>2026-09-02T14:07:43Z</time></trkpt><trkpt lat="59.4659694470" lon="31.1096765287"><ele>44.84</ele><time>2026-09-02T14:07:54Z</time></trkpt><trkpt lat="59.4659086782" lon="31.1094513908"><ele>46.28</ele><time>2026-09-02T14:08:09Z</time></trkpt><trkpt lat="59.4658536091" lon="31.1091953237"><ele>48.68</ele><time>2026-09-02T14:08:21Z</time></trkpt><trkpt lat="59.4658531062" lon="31.1089176312"><ele>47.72</ele><time>2026-09-02T14:08:36Z</time></trkpt><trkpt lat="59.4658241048" lon="31.1086791661"><ele>48.20</ele><time>2026-09-02T14:08:49Z</time></trkpt><trkpt lat="59.4657919183" lon="31.1085188203"><ele>51.57</ele><time>2026-09-02T14:08:55Z</time></trkpt><trkpt lat="59.4657858834" lon="31.1083325744"><ele>47.72</ele><time>2026-09-02T14:09:08Z</time></trkpt><trkpt lat="59.4657581393" lon="31.1081947759"><ele>45.80</ele><time>2026-09-02T14:09:21Z</time></trkpt><trkpt lat="59.4657657668" lon="31.1079068575"><ele>43.40</ele><time>2026-09-02T14:09:36Z</time></trkpt><trkpt lat="59.4657422975" lon="31.1077016685"><ele>42.92</ele><time>2026-09-02T14:09:50Z</time></trkpt><trkpt lat="59.4657365978" lon="31.1074110679"><ele>45.32</ele><time>2026-09-02T14:10:05Z</time></trkpt><trkpt lat="59.4657170679" lon="31.1073130835"><ele>42.44</ele><time>2026-09-02T14:10:18Z</time></trkpt><trkpt lat="59.4656774215" lon="31.1072202958"><ele>40.51</ele><time>2026-09-02T14:10:30Z</time></trkpt><trkpt lat="59.4656724762" lon="31.1071798112"><ele>40.51</ele><time>2026-09-02T14:10:44Z</time></trkpt><trkpt lat="59.4656687044" lon="31.1071422603"><ele>41.95</ele><time>2026-09-02T14:11:01Z</time></trkpt><trkpt lat="59.4656905811" lon="31.1070633028"><ele>45.32</ele><time>2026-09-02T14:11:17Z</time></trkpt><trkpt lat="59.4656648487" lon="31.1070078984"><ele>47.24</ele><time>2026-09-02T14:11:31Z</time></trkpt><trkpt lat="59.4656452350" lon="31.1069271807"><ele>49.65</ele><time>2026-09-02T14:11:56Z</time></trkpt><trkpt lat="59.4656180777" lon="31.1067394260"><ele>52.53</ele><time>2026-09-02T14:12:11Z</time></trkpt><trkpt lat="59.4655278884" lon="31.1066190619"><ele>53.97</ele><time>2026-09-02T14:12:26Z</time></trkpt><trkpt lat="59.4654544629" lon="31.1065584607"><ele>54.93</ele><time>2026-09-02T14:12:40Z</time></trkpt><trkpt lat="59.4653644413" lon="31.1064466462"><ele>55.41</ele><time>2026-09-02T14:12:55Z</time></trkpt><trkpt lat="59.4653040078" lon="31.1063567922"><ele>53.97</ele><time>2026-09-02T14:13:10Z</time></trkpt><trkpt lat="59.4652070291" lon="31.1061350908"><ele>53.01</ele><time>2026-09-02T14:13:24Z</time></trkpt><trkpt lat="59.4651525468" lon="31.1060121283"><ele>50.61</ele><time>2026-09-02T14:13:37Z</time></trkpt><trkpt lat="59.4651042670" lon="31.1059073545"><ele>49.65</ele><time>2026-09-02T14:13:53Z</time></trkpt><trkpt lat="59.4650994893" lon="31.1058114655"><ele>52.05</ele><time>2026-09-02T14:14:05Z</time></trkpt><trkpt lat="59.4650417380" lon="31.1057579052"><ele>54.45</ele><time>2026-09-02T14:14:19Z</time></trkpt><trkpt lat="59.4650557358" lon="31.1056393851"><ele>56.37</ele><time>2026-09-02T14:14:31Z</time></trkpt><trkpt lat="59.4650659617" lon="31.1055862438"><ele>56.37</ele><time>2026-09-02T14:14:44Z</time></trkpt><trkpt lat="59.4650284946" lon="31.1055440828"><ele>55.89</ele><time>2026-09-02T14:14:56Z</time></trkpt><trkpt lat="59.4649946317" lon="31.1055987328"><ele>56.37</ele><time>2026-09-02T14:15:10Z</time></trkpt><trkpt lat="59.4649484474" lon="31.1056494433"><ele>57.34</ele><time>2026-09-02T14:15:25Z</time></trkpt><trkpt lat="59.4648715854" lon="31.1057103798"><ele>60.22</ele><time>2026-09-02T14:15:39Z</time></trkpt><trkpt lat="59.4648212940" lon="31.1057594139"><ele>61.66</ele><time>2026-09-02T14:15:54Z</time></trkpt><trkpt lat="59.4647310209" lon="31.1055636965"><ele>60.22</ele><time>2026-09-02T14:16:08Z</time></trkpt><trkpt lat="59.4646785501" lon="31.1054744292"><ele>58.30</ele><time>2026-09-02T14:16:21Z</time></trkpt><trkpt lat="59.4645928871" lon="31.1053795461"><ele>53.01</ele><time>2026-09-02T14:16:39Z</time></trkpt><trkpt lat="59.4644486345" lon="31.1052787118"><ele>49.65</ele><time>2026-09-02T14:16:55Z</time></trkpt><trkpt lat="59.4643692579" lon="31.1051244009"><ele>45.32</ele><time>2026-09-02T14:17:11Z</time></trkpt><trkpt lat="59.4642257597" lon="31.1049407534"><ele>44.84</ele><time>2026-09-02T14:17:27Z</time></trkpt><trkpt lat="59.4641636498" lon="31.1048524920"><ele>45.80</ele><time>2026-09-02T14:17:42Z</time></trkpt><trkpt lat="59.4641332235" lon="31.1047773063"><ele>48.20</ele><time>2026-09-02T14:17:55Z</time></trkpt><trkpt lat="59.4641157053" lon="31.1047541723"><ele>48.68</ele><time>2026-09-02T14:17:57Z</time></trkpt><trkpt lat="59.4640696049" lon="31.1046251748"><ele>51.09</ele><time>2026-09-02T14:18:12Z</time></trkpt><trkpt lat="59.4640037231" lon="31.1045098398"><ele>51.09</ele><time>2026-09-02T14:18:26Z</time></trkpt><trkpt lat="59.4638960157" lon="31.1043290421"><ele>53.01</ele><time>2026-09-02T14:18:40Z</time></trkpt><trkpt lat="59.4637940079" lon="31.1042193230"><ele>53.49</ele><time>2026-09-02T14:18:52Z</time></trkpt><trkpt lat="59.4636758231" lon="31.1040645093"><ele>55.41</ele><time>2026-09-02T14:19:06Z</time></trkpt><trkpt lat="59.4636303093" lon="31.1039843783"><ele>56.37</ele><time>2026-09-02T14:19:12Z</time></trkpt><trkpt lat="59.4636202510" lon="31.1039499287"><ele>56.86</ele><time>2026-09-02T14:19:14Z</time></trkpt><trkpt lat="59.4635396171" lon="31.1037598271"><ele>56.86</ele><time>2026-09-02T14:19:29Z</time></trkpt><trkpt lat="59.4635037426" lon="31.1036778521"><ele>56.37</ele><time>2026-09-02T14:19:37Z</time></trkpt><trkpt lat="59.4633783493" lon="31.1035971344"><ele>56.37</ele><time>2026-09-02T14:19:52Z</time></trkpt><trkpt lat="59.4633641001" lon="31.1035785265"><ele>56.37</ele><time>2026-09-02T14:19:54Z</time></trkpt><trkpt lat="59.4633241184" lon="31.1035237089"><ele>56.37</ele><time>2026-09-02T14:19:59Z</time></trkpt><trkpt lat="59.4632330909" lon="31.1034229584"><ele>56.37</ele><time>2026-09-02T14:20:12Z</time></trkpt><trkpt lat="59.4631723221" lon="31.1033408996"><ele>56.86</ele><time>2026-09-02T14:20:25Z</time></trkpt><trkpt lat="59.4631770160" lon="31.1033281591"><ele>57.34</ele><time>2026-09-02T14:20:37Z</time></trkpt><trkpt lat="59.4631650299" lon="31.1033165921"><ele>57.34</ele><time>2026-09-02T14:20:54Z</time></trkpt><trkpt lat="59.4631799497" lon="31.1033460964"><ele>58.30</ele><time>2026-09-02T14:21:14Z</time></trkpt><trkpt lat="59.4630936161" lon="31.1032457650"><ele>58.78</ele><time>2026-09-02T14:21:23Z</time></trkpt><trkpt lat="59.4629610144" lon="31.1030999199"><ele>58.30</ele><time>2026-09-02T14:21:38Z</time></trkpt><trkpt lat="59.4629476033" lon="31.1030632909"><ele>57.82</ele><time>2026-09-02T14:21:40Z</time></trkpt><trkpt lat="59.4629235473" lon="31.1029877700"><ele>57.34</ele><time>2026-09-02T14:21:45Z</time></trkpt><trkpt lat="59.4628381357" lon="31.1028953176"><ele>55.41</ele><time>2026-09-02T14:21:58Z</time></trkpt><trkpt lat="59.4627597649" lon="31.1027663201"><ele>54.93</ele><time>2026-09-02T14:22:10Z</time></trkpt><trkpt lat="59.4627554063" lon="31.1027739476"><ele>54.45</ele><time>2026-09-02T14:22:27Z</time></trkpt><trkpt lat="59.4627236389" lon="31.1027380731"><ele>54.45</ele><time>2026-09-02T14:22:34Z</time></trkpt><trkpt lat="59.4626181107" lon="31.1026046332"><ele>53.97</ele><time>2026-09-02T14:22:47Z</time></trkpt><trkpt lat="59.4625848345" lon="31.1025607120"><ele>53.97</ele><time>2026-09-02T14:22:53Z</time></trkpt><trkpt lat="59.4625218026" lon="31.1024615541"><ele>53.97</ele><time>2026-09-02T14:23:04Z</time></trkpt><trkpt lat="59.4624961540" lon="31.1024380848"><ele>54.45</ele><time>2026-09-02T14:23:07Z</time></trkpt><trkpt lat="59.4624122512" lon="31.1023520865"><ele>54.93</ele><time>2026-09-02T14:23:19Z</time></trkpt><trkpt lat="59.4623829145" lon="31.1022717040"><ele>54.93</ele><time>2026-09-02T14:23:32Z</time></trkpt><trkpt lat="59.4623395801" lon="31.1021708697"><ele>56.37</ele><time>2026-09-02T14:23:42Z</time></trkpt><trkpt lat="59.4622995146" lon="31.1021614820"><ele>55.89</ele><time>2026-09-02T14:23:47Z</time></trkpt><trkpt lat="59.4621926453" lon="31.1020293832"><ele>55.89</ele><time>2026-09-02T14:24:01Z</time></trkpt><trkpt lat="59.4621018693" lon="31.1019075103"><ele>55.89</ele><time>2026-09-02T14:24:12Z</time></trkpt><trkpt lat="59.4619751349" lon="31.1017997190"><ele>56.86</ele><time>2026-09-02T14:24:26Z</time></trkpt><trkpt lat="59.4618659187" lon="31.1016693804"><ele>56.86</ele><time>2026-09-02T14:24:40Z</time></trkpt><trkpt lat="59.4618125260" lon="31.1016084440"><ele>57.34</ele><time>2026-09-02T14:24:47Z</time></trkpt><trkpt lat="59.4617225882" lon="31.1015664507"><ele>57.34</ele><time>2026-09-02T14:24:57Z</time></trkpt><trkpt lat="59.4617031422" lon="31.1015328392"><ele>57.82</ele><time>2026-09-02T14:25:00Z</time></trkpt><trkpt lat="59.4616372604" lon="31.1014100444"><ele>57.82</ele><time>2026-09-02T14:25:09Z</time></trkpt><trkpt lat="59.4615681935" lon="31.1013596691"><ele>57.34</ele><time>2026-09-02T14:25:18Z</time></trkpt><trkpt lat="59.4615407847" lon="31.1013224535"><ele>56.86</ele><time>2026-09-02T14:25:22Z</time></trkpt><trkpt lat="59.4615391921" lon="31.1012826394"><ele>56.37</ele><time>2026-09-02T14:25:24Z</time></trkpt><trkpt lat="59.4615063351" lon="31.1012413166"><ele>56.37</ele><time>2026-09-02T14:25:28Z</time></trkpt><trkpt lat="59.4614334963" lon="31.1012149975"><ele>54.45</ele><time>2026-09-02T14:25:38Z</time></trkpt><trkpt lat="59.4614179898" lon="31.1012015864"><ele>54.45</ele><time>2026-09-02T14:25:40Z</time></trkpt><trkpt lat="59.4613640942" lon="31.1011075415"><ele>54.45</ele><time>2026-09-02T14:25:48Z</time></trkpt><trkpt lat="59.4613444805" lon="31.1010783724"><ele>54.45</ele><time>2026-09-02T14:25:51Z</time></trkpt><trkpt lat="59.4613250345" lon="31.1010812223"><ele>54.93</ele><time>2026-09-02T14:25:53Z</time></trkpt><trkpt lat="59.4612873998" lon="31.1010704096"><ele>55.41</ele><time>2026-09-02T14:25:58Z</time></trkpt><trkpt lat="59.4612366892" lon="31.1010555737"><ele>55.41</ele><time>2026-09-02T14:26:03Z</time></trkpt><trkpt lat="59.4611590728" lon="31.1008855887"><ele>55.41</ele><time>2026-09-02T14:26:15Z</time></trkpt><trkpt lat="59.4611319155" lon="31.1008430924"><ele>55.41</ele><time>2026-09-02T14:26:20Z</time></trkpt><trkpt lat="59.4610931911" lon="31.1007995065"><ele>55.89</ele><time>2026-09-02T14:26:25Z</time></trkpt><trkpt lat="59.4610690512" lon="31.1007966567"><ele>55.89</ele><time>2026-09-02T14:26:28Z</time></trkpt><trkpt lat="59.4609957933" lon="31.1008093134"><ele>54.93</ele><time>2026-09-02T14:26:36Z</time></trkpt><trkpt lat="59.4609861542" lon="31.1008337885"><ele>54.93</ele><time>2026-09-02T14:26:38Z</time></trkpt><trkpt lat="59.4608766865" lon="31.1008713394"><ele>53.49</ele><time>2026-09-02T14:26:51Z</time></trkpt><trkpt lat="59.4608580787" lon="31.1008820683"><ele>53.49</ele><time>2026-09-02T14:26:54Z</time></trkpt><trkpt lat="59.4608397223" lon="31.1008998379"><ele>53.49</ele><time>2026-09-02T14:26:56Z</time></trkpt><trkpt lat="59.4608042669" lon="31.1009404063"><ele>53.01</ele><time>2026-09-02T14:27:00Z</time></trkpt><trkpt lat="59.4607219566" lon="31.1010779534"><ele>53.49</ele><time>2026-09-02T14:27:12Z</time></trkpt><trkpt lat="59.4606917817" lon="31.1011108942"><ele>53.97</ele><time>2026-09-02T14:27:17Z</time></trkpt><trkpt lat="59.4606436696" lon="31.1010806356"><ele>53.97</ele><time>2026-09-02T14:27:22Z</time></trkpt><trkpt lat="59.4605166838" lon="31.1009927932"><ele>53.49</ele><time>2026-09-02T14:27:36Z</time></trkpt><trkpt lat="59.4605045300" lon="31.1009647138"><ele>53.97</ele><time>2026-09-02T14:27:38Z</time></trkpt><trkpt lat="59.4604756124" lon="31.1009158473"><ele>53.97</ele><time>2026-09-02T14:27:42Z</time></trkpt><trkpt lat="59.4603518117" lon="31.1008196231"><ele>54.45</ele><time>2026-09-02T14:27:57Z</time></trkpt><trkpt lat="59.4602554198" lon="31.1007104069"><ele>53.97</ele><time>2026-09-02T14:28:10Z</time></trkpt><trkpt lat="59.4602345489" lon="31.1006783880"><ele>54.45</ele><time>2026-09-02T14:28:13Z</time></trkpt><trkpt lat="59.4601940643" lon="31.1006423458"><ele>53.97</ele><time>2026-09-02T14:28:19Z</time></trkpt><trkpt lat="59.4601648115" lon="31.1005987599"><ele>54.45</ele><time>2026-09-02T14:28:24Z</time></trkpt><trkpt lat="59.4600615464" lon="31.1004714388"><ele>54.93</ele><time>2026-09-02T14:28:38Z</time></trkpt><trkpt lat="59.4600084890" lon="31.1004241649"><ele>54.93</ele><time>2026-09-02T14:28:45Z</time></trkpt><trkpt lat="59.4599782303" lon="31.1004265957"><ele>54.45</ele><time>2026-09-02T14:28:48Z</time></trkpt><trkpt lat="59.4598753005" lon="31.1003308743"><ele>53.97</ele><time>2026-09-02T14:29:02Z</time></trkpt><trkpt lat="59.4598382525" lon="31.1002965085"><ele>53.97</ele><time>2026-09-02T14:29:07Z</time></trkpt><trkpt lat="59.4598232489" lon="31.1002742127"><ele>54.45</ele><time>2026-09-02T14:29:09Z</time></trkpt><trkpt lat="59.4597728737" lon="31.1002568621"><ele>53.01</ele><time>2026-09-02T14:29:15Z</time></trkpt><trkpt lat="59.4597366638" lon="31.1002599634"><ele>53.49</ele><time>2026-09-02T14:29:19Z</time></trkpt><trkpt lat="59.4597188942" lon="31.1002359074"><ele>53.49</ele><time>2026-09-02T14:29:21Z</time></trkpt><trkpt lat="59.4596280344" lon="31.1000517569"><ele>53.97</ele><time>2026-09-02T14:29:35Z</time></trkpt><trkpt lat="59.4595949259" lon="31.1000111885"><ele>54.45</ele><time>2026-09-02T14:29:39Z</time></trkpt><trkpt lat="59.4594837818" lon="31.0998301394"><ele>55.89</ele><time>2026-09-02T14:29:54Z</time></trkpt><trkpt lat="59.4594184868" lon="31.0997526906"><ele>55.41</ele><time>2026-09-02T14:30:04Z</time></trkpt><trkpt lat="59.4594031479" lon="31.0996512696"><ele>55.89</ele><time>2026-09-02T14:30:10Z</time></trkpt><trkpt lat="59.4593496714" lon="31.0995113757"><ele>55.89</ele><time>2026-09-02T14:30:21Z</time></trkpt><trkpt lat="59.4592926744" lon="31.0995586496"><ele>55.89</ele><time>2026-09-02T14:30:27Z</time></trkpt><trkpt lat="59.4592386950" lon="31.0996008106"><ele>56.37</ele><time>2026-09-02T14:30:33Z</time></trkpt><trkpt lat="59.4591874816" lon="31.0995185003"><ele>55.89</ele><time>2026-09-02T14:30:42Z</time></trkpt><trkpt lat="59.4591565523" lon="31.0994894989"><ele>54.93</ele><time>2026-09-02T14:30:46Z</time></trkpt><trkpt lat="59.4590772595" lon="31.0994813684"><ele>54.93</ele><time>2026-09-02T14:30:56Z</time></trkpt><trkpt lat="59.4590708055" lon="31.0995454062"><ele>54.45</ele><time>2026-09-02T14:30:59Z</time></trkpt><trkpt lat="59.4590574782" lon="31.0995786823"><ele>54.45</ele><time>2026-09-02T14:31:01Z</time></trkpt><trkpt lat="59.4589842204" lon="31.0999047384"><ele>54.93</ele><time>2026-09-02T14:31:17Z</time></trkpt><trkpt lat="59.4589574821" lon="31.0999687761"><ele>54.93</ele><time>2026-09-02T14:31:21Z</time></trkpt><trkpt lat="59.4588825479" lon="31.1000898108"><ele>54.45</ele><time>2026-09-02T14:31:36Z</time></trkpt><trkpt lat="59.4588284008" lon="31.0999858752"><ele>54.93</ele><time>2026-09-02T14:31:53Z</time></trkpt><trkpt lat="59.4587660395" lon="31.0998169798"><ele>54.45</ele><time>2026-09-02T14:32:05Z</time></trkpt><trkpt lat="59.4587089587" lon="31.0995898303"><ele>52.53</ele><time>2026-09-02T14:32:23Z</time></trkpt><trkpt lat="59.4586925302" lon="31.0995693784"><ele>52.53</ele><time>2026-09-02T14:32:37Z</time></trkpt></trkseg></trk></gpx>